M I D A S
Marine Information and Data Acquisition System
Tripno 1329 of the Zeeleeuw from 2007-02-09 07:28:21 to 2007-02-09 17:44:42
Back to CruiseResearch ActivitiesStationsMapUnderway DataData graphs

EquipmentUnitsComment
TimeDGPSUTC
LatitudeDGPSDM.mWGS84
LongitudeDGPSDM.mWGS84
TemperatureSBE03/SBE38deg celciusITS90
ConductivitySBE21S/mITS90
SalinitySBE21 Practical Salinity Units
ChlorophylAChelsea fluorimeterg/lCalibrated in Aceton
Missing or incorrect values are displayed as -999
Sea surface data collected by the RV Zeeleeuw from 2007-02-09 07:11:29 to 2007-02-09 17:54:29
                                                                                    Next 1000 lines
Time Latitude Longitude Temperature Conductivity Salinity ChlorophylA
2007-02-09 07:11:38 51°13.598 2°56.095 14.2434 0.075072 0.412748 -2.871232
2007-02-09 07:11:44 51°13.598 2°56.093 14.1877 0.075072 0.412748 -2.871232
2007-02-09 07:11:49 51°13.599 2°56.092 14.1858 0.075072 0.412756 -2.871232
2007-02-09 07:11:54 51°13.599 2°56.089 14.2549 0.075072 0.412765 -2.871232
2007-02-09 07:11:59 51°13.6 2°56.087 14.2457 0.075072 0.412773 -2.871232
2007-02-09 07:12:03 51°13.601 2°56.084 14.2468 0.075175 0.413367 -2.871232
2007-02-09 07:12:09 51°13.602 2°56.079 14.281 0.075072 0.412789 -2.871232
2007-02-09 07:12:14 51°13.603 2°56.075 14.2729 0.075072 0.412789 -2.871232
2007-02-09 07:12:20 51°13.604 2°56.069 14.2651 0.075175 0.413383 -2.871232
2007-02-09 07:12:26 51°13.606 2°56.062 14.2338 0.075072 0.412806 -2.871232
2007-02-09 07:12:32 51°13.608 2°56.055 14.2517 0.075175 0.413391 -2.871232
2007-02-09 07:12:37 51°13.609 2°56.048 14.2364 0.075175 0.413399 -2.871232
2007-02-09 07:12:41 51°13.611 2°56.043 14.2856 0.075072 0.412822 -2.871232
2007-02-09 07:12:47 51°13.614 2°56.033 14.257 0.075072 0.412822 -2.871232
2007-02-09 07:12:52 51°13.616 2°56.025 14.2863 0.075072 0.41283 -2.871232
2007-02-09 07:12:58 51°13.619 2°56.014 14.3253 0.075072 0.412846 -2.871232
2007-02-09 07:13:02 51°13.621 2°56.007 14.3394 0.075072 0.412855 -2.871232
2007-02-09 07:13:07 51°13.624 2°55.997 14.3143 0.075072 0.412863 -2.871232
2007-02-09 07:13:12 51°13.627 2°55.987 14.3083 0.075072 0.412871 -2.871232
2007-02-09 07:13:17 51°13.63 2°55.977 14.3026 0.075072 0.412871 -2.871232
2007-02-09 07:13:23 51°13.634 2°55.965 14.3244 0.075072 0.412871 -2.871232
2007-02-09 07:13:27 51°13.636 2°55.956 14.3429 0.075072 0.412879 -2.871232
2007-02-09 07:13:32 51°13.64 2°55.947 14.3813 0.07497 0.412302 -2.871232
2007-02-09 07:13:37 51°13.643 2°55.937 14.3244 0.075072 0.412896 -2.871232
2007-02-09 07:13:42 51°13.646 2°55.927 14.3188 0.075072 0.412896 -2.871232
2007-02-09 07:13:47 51°13.649 2°55.918 14.345 0.075072 0.412896 -2.871232
2007-02-09 07:13:52 51°13.652 2°55.909 14.3651 0.075072 0.412904 -2.871232
2007-02-09 07:13:56 51°13.654 2°55.902 14.3429 0.075072 0.412912 -2.871232
2007-02-09 07:14:02 51°13.658 2°55.891 14.3467 0.075072 0.41292 -2.871232
2007-02-09 07:14:07 51°13.66 2°55.883 14.3453 0.075072 0.412937 -2.871232
2007-02-09 07:14:12 51°13.663 2°55.874 14.3381 0.07497 0.412359 -2.871232
2007-02-09 07:14:16 51°13.666 2°55.868 14.336 0.07497 0.412359 -2.871232
2007-02-09 07:14:22 51°13.669 2°55.858 14.3398 0.075072 0.412953 -2.871232
2007-02-09 07:14:27 51°13.671 2°55.85 14.3391 0.075072 0.412969 -2.871232
2007-02-09 07:14:32 51°13.674 2°55.843 14.3395 0.075175 0.413563 -2.871232
2007-02-09 07:14:37 51°13.676 2°55.835 14.3369 0.075072 0.412986 -2.871232
2007-02-09 07:14:42 51°13.678 2°55.828 14.3268 0.075072 0.413002 -2.871232
2007-02-09 07:14:47 51°13.68 2°55.821 14.3403 0.075072 0.413002 -2.871232
2007-02-09 07:14:52 51°13.683 2°55.814 14.3458 0.075072 0.413002 -2.871232
2007-02-09 07:14:57 51°13.684 2°55.807 14.3113 0.075072 0.413018 -2.871232
2007-02-09 07:15:02 51°13.686 2°55.8 14.3257 0.075072 0.413027 -2.871232
2007-02-09 07:15:07 51°13.688 2°55.794 13.0852 0.075072 0.413027 -2.871232
2007-02-09 07:15:12 51°13.689 2°55.788 10.9519 0.079498 0.43941 -2.871232
2007-02-09 07:15:17 51°13.691 2°55.781 8.7138 0.092362 0.512592 -2.871232
2007-02-09 07:15:21 51°13.692 2°55.776 8.1289 0.092362 0.512592 -2.871232
2007-02-09 07:15:27 51°13.693 2°55.769 7.5801 0.474342 2.848432 -2.871232
2007-02-09 07:15:31 51°13.694 2°55.765 7.1446 1.97051 13.590904 -2.871232
2007-02-09 07:15:36 51°13.694 2°55.759 7.0443 2.32573 17.098276 -2.871232
2007-02-09 07:15:41 51°13.695 2°55.753 6.8854 2.847784 22.458429 -2.871232
2007-02-09 07:15:47 51°13.695 2°55.746 6.7671 2.847784 22.458429 -2.871232
2007-02-09 07:15:52 51°13.696 2°55.741 6.6029 3.076607 25.651404 -2.871232
2007-02-09 07:15:57 51°13.696 2°55.736 6.5257 2.964582 25.569844 -2.871232
2007-02-09 07:16:02 51°13.697 2°55.732 6.4507 2.897672 25.681639 -2.871232
2007-02-09 07:16:07 51°13.697 2°55.729 6.4409 2.844418 25.664703 -2.871232
2007-02-09 07:16:12 51°13.697 2°55.726 6.4446 2.805437 25.560583 -2.871232
2007-02-09 07:16:17 51°13.697 2°55.725 6.4366 2.805437 25.560583 -2.871232
2007-02-09 07:16:21 51°13.697 2°55.723 6.4166 2.778452 25.519508 -2.871232
2007-02-09 07:16:26 51°13.697 2°55.722 6.4099 2.756741 25.477437 -2.871232
2007-02-09 07:16:31 51°13.697 2°55.721 6.3662 2.744646 25.47087 -2.871232
2007-02-09 07:16:36 51°13.697 2°55.721 6.3119 2.724486 25.345777 -2.871232
2007-02-09 07:16:41 51°13.698 2°55.721 6.3405 2.73038 25.466587 -2.871232
2007-02-09 07:16:46 51°13.699 2°55.721 6.2778 2.73038 25.466587 -2.871232
2007-02-09 07:16:51 51°13.699 2°55.722 6.2253 2.713942 25.326655 -2.871232
2007-02-09 07:16:56 51°13.701 2°55.722 6.2407 2.697712 25.204422 -2.871232
2007-02-09 07:17:01 51°13.703 2°55.723 6.3139 2.704535 25.308366 -2.871232
2007-02-09 07:17:06 51°13.704 2°55.724 6.2256 2.69182 25.211958 -2.871232
2007-02-09 07:17:10 51°13.706 2°55.725 6.2095 2.686858 25.185972 -2.871232
2007-02-09 07:17:16 51°13.709 2°55.725 6.2099 2.686858 25.185972 -2.871232
2007-02-09 07:17:21 51°13.712 2°55.725 6.1848 2.674867 25.092451 -2.871232
2007-02-09 07:17:25 51°13.714 2°55.725 6.1619 2.672696 25.099458 -2.871232
2007-02-09 07:17:30 51°13.717 2°55.725 6.1738 2.670422 25.088172 -2.871232
2007-02-09 07:17:35 51°13.721 2°55.724 6.1641 2.663703 25.030229 -2.871232
2007-02-09 07:17:40 51°13.724 2°55.722 6.1578 2.66391 25.056757 -2.871232
2007-02-09 07:17:45 51°13.729 2°55.719 6.1749 2.66391 25.056757 -2.871232
2007-02-09 07:17:50 51°13.734 2°55.716 6.1863 2.657398 25.011635 -2.871232
2007-02-09 07:17:55 51°13.739 2°55.712 6.1443 2.630005 24.739007 -2.871232
2007-02-09 07:18:00 51°13.745 2°55.707 6.1206 2.654504 25.010383 -2.871232
2007-02-09 07:18:05 51°13.751 2°55.701 6.1742 2.664738 25.125799 -2.871232
2007-02-09 07:18:10 51°13.758 2°55.695 6.1655 2.656365 25.049801 -2.871232
2007-02-09 07:18:14 51°13.764 2°55.69 6.159 2.656365 25.049801 -2.871232
2007-02-09 07:18:19 51°13.771 2°55.683 6.1467 2.660396 25.093768 -2.871232
2007-02-09 07:18:24 51°13.779 2°55.676 6.1011 2.654401 25.036635 -2.871232
2007-02-09 07:18:29 51°13.788 2°55.669 6.1154 2.643857 24.941668 -2.871232
2007-02-09 07:18:34 51°13.797 2°55.662 6.1125 2.633107 24.82807 -2.871232
2007-02-09 07:18:39 51°13.806 2°55.655 6.1188 2.613675 24.627475 -2.871232
2007-02-09 07:18:44 51°13.815 2°55.648 6.0529 2.613675 24.627475 -2.871232
2007-02-09 07:18:49 51°13.825 2°55.641 6.0621 2.571712 24.196212 -2.871232
2007-02-09 07:18:54 51°13.835 2°55.634 6.0478 2.516422 23.636519 -2.871232
2007-02-09 07:18:58 51°13.843 2°55.628 6.1035 2.479427 23.26752 -2.871232
2007-02-09 07:19:03 51°13.853 2°55.62 6.1055 2.445639 22.928518 -2.871232
2007-02-09 07:19:09 51°13.865 2°55.611 6.1141 2.431587 22.788682 -2.871232
2007-02-09 07:19:13 51°13.873 2°55.605 6.0808 2.431587 22.788682 -2.871232
2007-02-09 07:19:19 51°13.886 2°55.596 6.0881 2.421255 22.696916 -2.871232
2007-02-09 07:19:24 51°13.896 2°55.588 6.1159 2.427248 22.770987 -2.871232
2007-02-09 07:19:29 51°13.907 2°55.58 6.0817 2.432207 22.824642 -2.871232
2007-02-09 07:19:34 51°13.917 2°55.572 6.0934 2.448946 22.989666 -2.871232
2007-02-09 07:19:39 51°13.928 2°55.564 6.1122 2.470231 23.200243 -2.871232
2007-02-09 07:19:44 51°13.939 2°55.556 6.0869 2.470231 23.200243 -2.871232
2007-02-09 07:19:48 51°13.948 2°55.55 6.0639 2.474984 23.255927 -2.871232
2007-02-09 07:19:53 51°13.958 2°55.542 6.1122 2.476328 23.272459 -2.871232
2007-02-09 07:19:59 51°13.971 2°55.532 6.1146 2.481701 23.327869 -2.871232
2007-02-09 07:20:04 51°13.982 2°55.525 6.0755 2.488004 23.394913 -2.871232
2007-02-09 07:20:08 51°13.991 2°55.518 6.07 2.494825 23.462586 -2.871232
2007-02-09 07:20:14 51°14.004 2°55.509 6.0718 2.494825 23.462586 -2.871232
2007-02-09 07:20:19 51°14.015 2°55.502 6.0577 2.498441 23.501948 -2.871232
2007-02-09 07:20:24 51°14.026 2°55.495 6.0531 2.496375 23.488066 -2.871232
2007-02-09 07:20:29 51°14.037 2°55.487 6.0431 2.494928 23.471775 -2.871232
2007-02-09 07:20:34 51°14.049 2°55.48 6.0617 2.512495 23.655264 -2.871232
2007-02-09 07:20:38 51°14.057 2°55.473 6.0779 2.525826 23.797877 -2.871232
2007-02-09 07:20:44 51°14.071 2°55.464 6.0599 2.525826 23.797877 -2.871232
2007-02-09 07:20:49 51°14.082 2°55.456 6.0649 2.542775 23.978092 -2.871232
2007-02-09 07:20:53 51°14.091 2°55.449 6.0697 2.559827 24.162398 -2.871232
2007-02-09 07:20:59 51°14.105 2°55.439 6.0605 2.584219 24.422446 -2.871232
2007-02-09 07:21:04 51°14.117 2°55.43 6.0576 2.60272 24.618163 -2.871232
2007-02-09 07:21:10 51°14.132 2°55.419 6.0678 2.61502 24.74103 -2.871232
2007-02-09 07:21:15 51°14.144 2°55.409 6.0515 2.61502 24.74103 -2.871232
2007-02-09 07:21:21 51°14.159 2°55.396 6.0503 2.62701 24.867167 -2.871232
2007-02-09 07:21:26 51°14.172 2°55.384 6.0795 2.621842 24.815555 -2.871232
2007-02-09 07:21:32 51°14.186 2°55.37 6.0565 2.623702 24.834192 -2.871232
2007-02-09 07:21:37 51°14.198 2°55.356 6.0685 2.620808 24.804086 -2.871232
2007-02-09 07:21:42 51°14.21 2°55.342 6.0479 2.621635 24.815555 -2.871232
2007-02-09 07:21:47 51°14.221 2°55.327 6.0614 2.621635 24.815555 -2.871232
2007-02-09 07:21:52 51°14.232 2°55.311 6.0343 2.629077 24.896587 -2.871232
2007-02-09 07:21:57 51°14.243 2°55.294 6.0369 2.654196 25.158191 -2.871232
2007-02-09 07:22:02 51°14.253 2°55.277 6.0392 2.668564 25.30433 -2.871232
2007-02-09 07:22:07 51°14.263 2°55.258 6.0493 2.675904 25.383076 -2.871232
2007-02-09 07:22:12 51°14.272 2°55.239 6.0402 2.684691 25.479179 -2.871232
2007-02-09 07:22:17 51°14.281 2°55.22 6.0446 2.684691 25.479179 -2.871232
2007-02-09 07:22:22 51°14.29 2°55.2 6.0673 2.684381 25.483307 -2.871232
2007-02-09 07:22:27 51°14.299 2°55.18 6.0763 2.679315 25.437779 -2.871232
2007-02-09 07:22:32 51°14.307 2°55.16 6.0737 2.671045 25.350711 -2.871232
2007-02-09 07:22:36 51°14.315 2°55.144 6.0577 2.65709 25.20511 -2.871232
2007-02-09 07:22:41 51°14.324 2°55.124 6.1116 2.654196 25.174924 -2.871232
2007-02-09 07:22:46 51°14.333 2°55.104 6.0931 2.654196 25.174924 -2.871232
2007-02-09 07:22:51 51°14.342 2°55.083 6.0735 2.660191 25.234538 -2.871232
2007-02-09 07:22:55 51°14.35 2°55.068 6.1518 2.671149 25.342996 -2.871232
2007-02-09 07:23:00 51°14.36 2°55.047 6.1874 2.669495 25.32208 -2.871232
2007-02-09 07:23:05 51°14.371 2°55.028 6.1348 2.670839 25.333169 -2.871232
2007-02-09 07:23:10 51°14.383 2°55.01 6.1375 2.653162 25.140154 -2.871232
2007-02-09 07:23:14 51°14.393 2°54.996 6.2199 2.653162 25.140154 -2.871232
2007-02-09 07:23:19 51°14.406 2°54.979 6.1417 2.655539 25.158383 -2.871232
2007-02-09 07:23:24 51°14.42 2°54.964 6.149 2.687378 25.485875 -2.871232
2007-02-09 07:23:29 51°14.435 2°54.949 6.124 2.723355 25.840582 -2.871232
2007-02-09 07:23:34 51°14.45 2°54.934 6.1544 2.767917 26.299519 -2.871232
2007-02-09 07:23:39 51°14.466 2°54.921 6.1807 2.798109 26.615593 -2.871232
2007-02-09 07:23:44 51°14.481 2°54.909 6.1457 2.798109 26.615593 -2.871232
2007-02-09 07:23:48 51°14.494 2°54.9 6.1468 2.823133 26.862409 -2.871232
2007-02-09 07:23:54 51°14.514 2°54.887 6.1758 2.849193 27.136544 -2.871232
2007-02-09 07:23:58 51°14.528 2°54.88 6.181 2.854467 27.198186 -2.871232
2007-02-09 07:24:04 51°14.548 2°54.87 6.1841 2.886941 27.542652 -2.871232
2007-02-09 07:24:08 51°14.562 2°54.863 6.2044 2.906281 27.735787 -2.871232
2007-02-09 07:24:14 51°14.582 2°54.853 6.1544 2.906281 27.735787 -2.871232
2007-02-09 07:24:18 51°14.596 2°54.846 6.1504 2.925519 27.935939 -2.871232
2007-02-09 07:24:24 51°14.616 2°54.836 6.1495 2.964101 28.34599 -2.871232
2007-02-09 07:24:28 51°14.63 2°54.829 6.1807 2.982514 28.530531 -2.871232
2007-02-09 07:24:33 51°14.647 2°54.819 6.1299 3.005272 28.767667 -2.871232
2007-02-09 07:24:38 51°14.664 2°54.81 6.1243 3.044067 29.179793 -2.871232
2007-02-09 07:24:44 51°14.684 2°54.798 6.1331 3.044067 29.179793 -2.871232
2007-02-09 07:24:49 51°14.701 2°54.789 6.1328 3.061035 29.364633 -2.871232
2007-02-09 07:24:53 51°14.715 2°54.781 6.1168 3.07076 29.476255 -2.871232
2007-02-09 07:24:58 51°14.732 2°54.771 6.0967 3.088039 29.66391 -2.871232
2007-02-09 07:25:04 51°14.752 2°54.76 6.1002 3.091454 29.707887 -2.871232
2007-02-09 07:25:08 51°14.766 2°54.753 6.0792 3.073451 29.522687 -2.871232
2007-02-09 07:25:13 51°14.783 2°54.743 6.0875 3.073451 29.522687 -2.871232
2007-02-09 07:25:18 51°14.8 2°54.733 6.0911 3.099835 29.806404 -2.871232
2007-02-09 07:25:24 51°14.82 2°54.722 6.0883 3.101284 29.827834 -2.871232
2007-02-09 07:25:28 51°14.834 2°54.714 6.0998 3.105733 29.88033 -2.871232
2007-02-09 07:25:33 51°14.851 2°54.705 6.0903 3.101077 29.839426 -2.871232
2007-02-09 07:25:38 51°14.868 2°54.696 6.086 3.103147 29.873531 -2.871232
2007-02-09 07:25:44 51°14.889 2°54.685 6.0859 3.103147 29.873531 -2.871232
2007-02-09 07:25:48 51°14.902 2°54.678 6.1038 3.107803 29.932617 -2.871232
2007-02-09 07:25:53 51°14.919 2°54.669 6.1096 3.111839 29.975596 -2.871232
2007-02-09 07:25:58 51°14.937 2°54.66 6.1127 3.111735 29.969293 -2.871232
2007-02-09 07:26:04 51°14.957 2°54.649 6.1141 3.101388 29.859989 -2.871232
2007-02-09 07:26:09 51°14.974 2°54.64 6.1358 3.100663 29.857461 -2.871232
2007-02-09 07:26:13 51°14.988 2°54.632 6.1431 3.100663 29.857461 -2.871232
2007-02-09 07:26:18 51°15.005 2°54.623 6.1474 3.104285 29.896019 -2.871232
2007-02-09 07:26:24 51°15.025 2°54.612 6.1703 3.115771 30.013141 -2.871232
2007-02-09 07:26:28 51°15.039 2°54.606 6.1897 3.087523 29.706436 -2.871232
2007-02-09 07:26:34 51°15.06 2°54.597 6.2221 3.120841 30.054986 -2.871232
2007-02-09 07:26:38 51°15.073 2°54.591 6.2289 3.133982 30.18626 -2.871232
2007-02-09 07:26:44 51°15.094 2°54.583 6.2529 3.133982 30.18626 -2.871232
2007-02-09 07:26:48 51°15.108 2°54.577 6.2766 3.146607 30.312035 -2.871232
2007-02-09 07:26:54 51°15.129 2°54.57 6.3037 3.153643 30.374748 -2.871232
2007-02-09 07:26:58 51°15.143 2°54.566 6.3081 3.160887 30.437005 -2.871232
2007-02-09 07:27:04 51°15.164 2°54.558 6.3152 3.167096 30.482047 -2.871232
2007-02-09 07:27:08 51°15.178 2°54.553 6.3187 3.174754 30.545112 -2.871232
2007-02-09 07:27:13 51°15.195 2°54.547 6.3289 3.174754 30.545112 -2.871232
2007-02-09 07:27:18 51°15.213 2°54.541 6.3347 3.190381 30.688548 -2.871232
2007-02-09 07:27:24 51°15.234 2°54.535 6.3536 3.194727 30.713592 -2.871232
2007-02-09 07:27:28 51°15.248 2°54.531 6.3522 3.207871 30.833973 -2.871232
2007-02-09 07:27:33 51°15.266 2°54.527 6.3613 3.22412 30.994461 -2.871232
2007-02-09 07:27:38 51°15.284 2°54.522 6.3573 3.225983 31.004483 -2.871232
2007-02-09 07:27:44 51°15.305 2°54.516 6.3587 3.225983 31.004483 -2.871232
2007-02-09 07:27:48 51°15.319 2°54.513 6.3671 3.227432 31.008313 -2.871232
2007-02-09 07:27:53 51°15.336 2°54.509 6.3653 3.235401 31.082397 -2.871232
2007-02-09 07:27:58 51°15.354 2°54.504 6.3725 3.24068 31.129619 -2.871232
2007-02-09 07:28:04 51°15.375 2°54.499 6.3635 3.239438 31.108363 -2.871232
2007-02-09 07:28:08 51°15.389 2°54.495 6.3511 3.237574 31.084086 -2.871232
2007-02-09 07:28:13 51°15.406 2°54.49 6.3554 3.237574 31.084086 -2.871232
2007-02-09 07:28:18 51°15.424 2°54.486 6.3458 3.254342 31.258856 -2.871232
2007-02-09 07:28:24 51°15.445 2°54.48 6.3478 3.236539 31.065945 -2.871232
2007-02-09 07:28:29 51°15.463 2°54.476 6.3474 3.252686 31.234061 -2.871232
2007-02-09 07:28:33 51°15.477 2°54.473 6.343 3.247407 31.178814 -2.871232
2007-02-09 07:28:38 51°15.494 2°54.468 6.3409 3.255895 31.274478 -2.871232
2007-02-09 07:28:44 51°15.515 2°54.462 6.3463 3.255895 31.274478 -2.871232
2007-02-09 07:28:48 51°15.529 2°54.459 6.3297 3.252997 31.245436 -2.871232
2007-02-09 07:28:54 51°15.55 2°54.452 6.3314 3.255067 31.271054 -2.871232
2007-02-09 07:28:58 51°15.564 2°54.449 6.3248 3.248235 31.198367 -2.871232
2007-02-09 07:29:04 51°15.585 2°54.443 6.3071 3.249477 31.216063 -2.871232
2007-02-09 07:29:08 51°15.599 2°54.439 6.3058 3.246476 31.185022 -2.871232
2007-02-09 07:29:13 51°15.617 2°54.434 6.3019 3.246476 31.185022 -2.871232
2007-02-09 07:29:18 51°15.634 2°54.43 6.3027 3.242543 31.145862 -2.871232
2007-02-09 07:29:24 51°15.655 2°54.426 6.3094 3.244509 31.173052 -2.871232
2007-02-09 07:29:28 51°15.669 2°54.424 6.2934 3.243681 31.169614 -2.871232
2007-02-09 07:29:33 51°15.687 2°54.42 6.288 3.238817 31.124105 -2.871232
2007-02-09 07:29:38 51°15.705 2°54.417 6.2877 3.233124 31.072457 -2.871232
2007-02-09 07:29:44 51°15.726 2°54.412 6.2848 3.233124 31.072457 -2.871232
2007-02-09 07:29:48 51°15.74 2°54.41 6.278 3.234884 31.095655 -2.871232
2007-02-09 07:29:53 51°15.757 2°54.406 6.2817 3.231468 31.061977 -2.871232
2007-02-09 07:29:58 51°15.774 2°54.402 6.2678 3.232607 31.077671 -2.871232
2007-02-09 07:30:04 51°15.795 2°54.398 6.2682 3.231054 31.066503 -2.871232
2007-02-09 07:30:08 51°15.808 2°54.394 6.2535 3.224844 31.003065 -2.871232
2007-02-09 07:30:13 51°15.824 2°54.389 6.2726 3.224844 31.003065 -2.871232
2007-02-09 07:30:18 51°15.84 2°54.382 6.2477 3.225258 31.011933 -2.871232
2007-02-09 07:30:24 51°15.858 2°54.372 6.2529 3.219566 30.956675 -2.871232
2007-02-09 07:30:28 51°15.87 2°54.364 6.2353 3.216358 30.926969 -2.871232
2007-02-09 07:30:34 51°15.887 2°54.351 6.2265 3.214391 30.909593 -2.871232
2007-02-09 07:30:38 51°15.898 2°54.341 6.2399 3.200109 30.764668 -2.871232
2007-02-09 07:30:44 51°15.915 2°54.325 6.2267 3.200109 30.764668 -2.871232
2007-02-09 07:30:48 51°15.926 2°54.314 6.2327 3.193796 30.704565 -2.871232
2007-02-09 07:30:54 51°15.942 2°54.298 6.2384 3.200833 30.786558 -2.871232
2007-02-09 07:30:58 51°15.952 2°54.286 6.2466 3.197004 30.749332 -2.871232
2007-02-09 07:31:04 51°15.968 2°54.27 6.2288 3.202179 30.813307 -2.871232
2007-02-09 07:31:08 51°15.978 2°54.258 6.2438 3.201351 30.806263 -2.871232
2007-02-09 07:31:14 51°15.993 2°54.242 6.2356 3.193693 30.727351 -2.871232
2007-02-09 07:31:18 51°16.002 2°54.232 6.2386 3.193693 30.727351 -2.871232
2007-02-09 07:31:24 51°16.014 2°54.217 6.2402 3.19183 30.707513 -2.871232
2007-02-09 07:31:28 51°16.023 2°54.209 6.2433 3.190588 30.691636 -2.871232
2007-02-09 07:31:33 51°16.032 2°54.197 6.2456 3.192347 30.711254 -2.871232
2007-02-09 07:31:38 51°16.042 2°54.188 6.2714 3.181688 30.597775 -2.871232
2007-02-09 07:31:44 51°16.053 2°54.179 6.2535 3.181688 30.597775 -2.871232
2007-02-09 07:31:48 51°16.06 2°54.173 6.2606 3.181377 30.594471 -2.871232
2007-02-09 07:31:53 51°16.069 2°54.168 6.237 3.18324 30.614298 -2.871232
2007-02-09 07:31:58 51°16.078 2°54.165 6.2533 3.182826 30.609009 -2.871232
2007-02-09 07:32:04 51°16.088 2°54.163 6.2646 3.176099 30.531268 -2.871232
2007-02-09 07:32:09 51°16.096 2°54.163 6.2507 3.179411 30.559457 -2.871232
2007-02-09 07:32:13 51°16.102 2°54.164 6.2449 3.179411 30.559457 -2.871232
2007-02-09 07:32:18 51°16.109 2°54.167 6.256 3.18355 30.60085 -2.871232
2007-02-09 07:32:24 51°16.116 2°54.171 6.2579 3.177755 30.540965 -2.871232
2007-02-09 07:32:28 51°16.121 2°54.174 6.2555 3.183033 30.601514 -2.871232
2007-02-09 07:32:33 51°16.126 2°54.179 6.2439 3.178583 30.55417 -2.871232
2007-02-09 07:32:38 51°16.132 2°54.185 6.2453 3.175168 30.516965 -2.871232
2007-02-09 07:32:44 51°16.138 2°54.192 6.245 3.175168 30.516965 -2.871232
2007-02-09 07:32:48 51°16.142 2°54.196 6.261 3.182929 30.602176 -2.871232
2007-02-09 07:32:54 51°16.149 2°54.202 6.2543 3.183654 30.608121 -2.871232
2007-02-09 07:32:58 51°16.153 2°54.206 6.2467 3.180135 30.568923 -2.871232
2007-02-09 07:33:04 51°16.159 2°54.212 6.2485 3.183136 30.602615 -2.871232
2007-02-09 07:33:08 51°16.164 2°54.216 6.2461 3.181687 30.590724 -2.871232
2007-02-09 07:33:14 51°16.17 2°54.222 6.2401 3.181687 30.590724 -2.871232
2007-02-09 07:33:18 51°16.175 2°54.225 6.2402 3.16813 30.445639 -2.871232
2007-02-09 07:33:24 51°16.181 2°54.231 6.2424 3.159748 30.355648 -2.871232
2007-02-09 07:33:29 51°16.187 2°54.235 6.2375 3.183343 30.607462 -2.871232
2007-02-09 07:33:33 51°16.191 2°54.239 6.2437 3.177134 30.544916 -2.871232
2007-02-09 07:33:38 51°16.197 2°54.243 6.2473 3.172477 30.497132 -2.871232
2007-02-09 07:33:44 51°16.203 2°54.249 6.2438 3.172477 30.497132 -2.871232
2007-02-09 07:33:48 51°16.207 2°54.252 6.249 3.183343 30.614517 -2.871232
2007-02-09 07:33:53 51°16.213 2°54.258 6.2393 3.179618 30.575747 -2.871232
2007-02-09 07:33:58 51°16.218 2°54.262 6.2403 3.17879 30.568698 -2.871232
2007-02-09 07:34:04 51°16.224 2°54.269 6.2442 3.173408 30.511435 -2.871232
2007-02-09 07:34:08 51°16.228 2°54.273 6.244 3.163474 30.40313 -2.871232
2007-02-09 07:34:13 51°16.233 2°54.278 6.243 3.163474 30.40313 -2.871232
2007-02-09 07:34:18 51°16.239 2°54.283 6.2424 3.175789 30.533242 -2.871232
2007-02-09 07:34:24 51°16.244 2°54.289 6.2605 3.175582 30.53104 -2.871232
2007-02-09 07:34:28 51°16.248 2°54.294 6.2488 3.171649 30.490961 -2.871232
2007-02-09 07:34:33 51°16.253 2°54.298 6.2385 3.177237 30.550418 -2.871232
2007-02-09 07:34:38 51°16.257 2°54.303 6.2362 3.179618 30.576628 -2.871232
2007-02-09 07:34:44 51°16.263 2°54.308 6.2368 3.180756 30.590507 -2.871232
2007-02-09 07:34:48 51°16.266 2°54.311 6.2357 3.180756 30.590507 -2.871232
2007-02-09 07:34:53 51°16.27 2°54.315 6.2424 3.174236 30.520244 -2.871232
2007-02-09 07:34:58 51°16.273 2°54.319 6.2412 3.176099 30.536545 -2.871232
2007-02-09 07:35:04 51°16.276 2°54.323 6.2329 3.173926 30.516061 -2.871232
2007-02-09 07:35:08 51°16.278 2°54.324 6.2445 3.174857 30.53037 -2.871232
2007-02-09 07:35:14 51°16.281 2°54.328 6.2395 3.174857 30.53037 -2.871232
2007-02-09 07:35:18 51°16.282 2°54.329 6.2363 3.173512 30.517812 -2.871232
2007-02-09 07:35:24 51°16.283 2°54.332 6.2349 3.176513 30.550632 -2.871232
2007-02-09 07:35:28 51°16.284 2°54.333 6.2231 3.166475 30.442062 -2.871232
2007-02-09 07:35:34 51°16.285 2°54.333 6.2243 3.17465 30.529047 -2.871232
2007-02-09 07:35:38 51°16.284 2°54.335 6.224 3.165543 30.431277 -2.871232
2007-02-09 07:35:44 51°16.285 2°54.335 6.228 3.165543 30.431277 -2.871232
2007-02-09 07:35:49 51°16.285 2°54.336 6.2362 3.172581 30.504385 -2.871232
2007-02-09 07:35:53 51°16.286 2°54.337 6.236 3.166371 30.436576 -2.871232
2007-02-09 07:35:58 51°16.286 2°54.338 6.2379 3.165336 30.424692 -2.871232
2007-02-09 07:36:04 51°16.286 2°54.339 6.2362 3.173719 30.517376 -2.871232
2007-02-09 07:36:08 51°16.286 2°54.34 6.2368 3.172788 30.508345 -2.871232
2007-02-09 07:36:13 51°16.286 2°54.341 6.2417 3.172788 30.508345 -2.871232
2007-02-09 07:36:18 51°16.287 2°54.342 6.2353 3.154471 30.3144 -2.871232
2007-02-09 07:36:24 51°16.286 2°54.343 6.2344 3.171339 30.490294 -2.871232
2007-02-09 07:36:28 51°16.286 2°54.344 6.2393 3.162749 30.397179 -2.871232
2007-02-09 07:36:33 51°16.286 2°54.345 6.2385 3.164302 30.413687 -2.871232
2007-02-09 07:36:38 51°16.286 2°54.346 6.2446 3.156333 30.327214 -2.871232
2007-02-09 07:36:44 51°16.286 2°54.347 6.2413 3.156333 30.327214 -2.871232
2007-02-09 07:36:48 51°16.286 2°54.348 6.2379 3.153125 30.293987 -2.871232
2007-02-09 07:36:53 51°16.285 2°54.349 6.2423 3.136982 30.122469 -2.871232
2007-02-09 07:36:58 51°16.286 2°54.35 6.2423 3.165336 30.423816 -2.871232
2007-02-09 07:37:04 51°16.285 2°54.351 6.2389 3.165336 30.422939 -2.871232
2007-02-09 07:37:09 51°16.285 2°54.353 6.2453 3.166164 30.42999 -2.871232
2007-02-09 07:37:13 51°16.285 2°54.353 6.2417 3.166164 30.42999 -2.871232
2007-02-09 07:37:18 51°16.284 2°54.354 6.2432 3.163784 30.402928 -2.871232
2007-02-09 07:37:24 51°16.284 2°54.356 6.2462 3.167199 30.440119 -2.871232
2007-02-09 07:37:28 51°16.284 2°54.356 6.2446 3.170511 30.475339 -2.871232
2007-02-09 07:37:34 51°16.283 2°54.357 6.2437 3.166992 30.437918 -2.871232
2007-02-09 07:37:38 51°16.283 2°54.358 6.2423 3.174029 30.512767 -2.871232
2007-02-09 07:37:44 51°16.283 2°54.36 6.2432 3.174029 30.512767 -2.871232
2007-02-09 07:37:48 51°16.283 2°54.36 6.2413 3.173512 30.507262 -2.871232
2007-02-09 07:37:53 51°16.282 2°54.361 6.2429 3.168337 30.451348 -2.871232
2007-02-09 07:37:58 51°16.282 2°54.362 6.247 3.169786 30.465879 -2.871232
2007-02-09 07:38:04 51°16.281 2°54.363 6.246 3.14019 30.15133 -2.871232
2007-02-09 07:38:08 51°16.281 2°54.364 6.2426 3.171753 30.486792 -2.871232
2007-02-09 07:38:13 51°16.281 2°54.365 6.2417 3.171753 30.486792 -2.871232
2007-02-09 07:38:18 51°16.28 2°54.366 6.2413 3.17465 30.516735 -2.871232
2007-02-09 07:38:24 51°16.28 2°54.368 6.243 3.172373 30.493396 -2.871232
2007-02-09 07:38:28 51°16.279 2°54.368 6.2445 3.174133 30.511231 -2.871232
2007-02-09 07:38:33 51°16.279 2°54.369 6.2436 3.175271 30.52334 -2.871232
2007-02-09 07:38:38 51°16.279 2°54.37 6.2476 3.172787 30.497799 -2.871232
2007-02-09 07:38:44 51°16.278 2°54.372 6.2413 3.172787 30.497799 -2.871232
2007-02-09 07:38:48 51°16.278 2°54.372 6.241 3.173719 30.508585 -2.871232
2007-02-09 07:38:53 51°16.278 2°54.374 6.24 3.17227 30.494052 -2.871232
2007-02-09 07:38:58 51°16.277 2°54.375 6.2414 3.172477 30.494497 -2.871232
2007-02-09 07:39:04 51°16.277 2°54.375 6.2465 3.174029 30.511888 -2.871232
2007-02-09 07:39:08 51°16.276 2°54.376 6.2471 3.168958 30.457074 -2.871232
2007-02-09 07:39:13 51°16.276 2°54.376 6.2459 3.168958 30.457074 -2.871232
2007-02-09 07:39:18 51°16.276 2°54.376 6.2477 3.173201 30.50396 -2.871232
2007-02-09 07:39:24 51°16.275 2°54.376 6.2406 3.171856 30.488771 -2.871232
2007-02-09 07:39:29 51°16.275 2°54.375 6.2438 3.173719 30.508585 -2.871232
2007-02-09 07:39:33 51°16.275 2°54.374 6.2468 3.172373 30.495153 -2.871232
2007-02-09 07:39:38 51°16.275 2°54.373 6.2437 3.174236 30.514089 -2.871232
2007-02-09 07:39:44 51°16.274 2°54.372 6.2491 3.174236 30.514089 -2.871232
2007-02-09 07:39:48 51°16.274 2°54.372 6.2462 3.171649 30.485691 -2.871232
2007-02-09 07:39:54 51°16.273 2°54.371 6.2481 3.170614 30.47644 -2.871232
2007-02-09 07:39:58 51°16.273 2°54.37 6.2478 3.172787 30.499556 -2.871232
2007-02-09 07:40:04 51°16.273 2°54.37 6.245 3.172063 30.490094 -2.871232
2007-02-09 07:40:08 51°16.272 2°54.369 6.2466 3.175375 30.52532 -2.871232
2007-02-09 07:40:14 51°16.272 2°54.368 6.2493 3.173719 30.507706 -2.871232
2007-02-09 07:40:18 51°16.272 2°54.368 6.2543 3.173719 30.507706 -2.871232
2007-02-09 07:40:24 51°16.271 2°54.367 6.2489 3.171339 30.481511 -2.871232
2007-02-09 07:40:28 51°16.271 2°54.367 6.2458 3.169786 30.464124 -2.871232
2007-02-09 07:40:33 51°16.271 2°54.366 6.2507 3.174754 30.516957 -2.871232
2007-02-09 07:40:38 51°16.27 2°54.366 6.2503 3.173719 30.505949 -2.871232
2007-02-09 07:40:44 51°16.27 2°54.365 6.2512 3.173719 30.505949 -2.871232
2007-02-09 07:40:49 51°16.269 2°54.365 6.245 3.170304 30.469627 -2.871232
2007-02-09 07:40:53 51°16.269 2°54.364 6.2512 3.173926 30.506393 -2.871232
2007-02-09 07:40:58 51°16.269 2°54.364 6.2579 3.175064 30.518501 -2.871232
2007-02-09 07:41:04 51°16.269 2°54.363 6.2516 3.173926 30.507271 -2.871232
2007-02-09 07:41:08 51°16.268 2°54.363 6.2446 3.176513 30.534792 -2.871232
2007-02-09 07:41:13 51°16.268 2°54.363 6.2459 3.176513 30.534792 -2.871232
2007-02-09 07:41:18 51°16.267 2°54.363 6.2629 3.173512 30.503747 -2.871232
2007-02-09 07:41:24 51°16.267 2°54.363 6.2489 3.16989 30.465224 -2.871232
2007-02-09 07:41:28 51°16.266 2°54.362 6.2508 3.172477 30.491862 -2.871232
2007-02-09 07:41:34 51°16.266 2°54.362 6.25 3.176823 30.537215 -2.871232
2007-02-09 07:41:38 51°16.266 2°54.361 6.2557 3.16751 30.439036 -2.871232
2007-02-09 07:41:44 51°16.265 2°54.36 6.2511 3.16751 30.439036 -2.871232
2007-02-09 07:41:48 51°16.265 2°54.359 6.2518 3.173098 30.497587 -2.871232
2007-02-09 07:41:54 51°16.265 2°54.357 6.2546 3.172373 30.489005 -2.871232
2007-02-09 07:41:58 51°16.265 2°54.355 6.2506 3.174961 30.516521 -2.871232
2007-02-09 07:42:04 51°16.265 2°54.353 6.2448 3.175168 30.518723 -2.871232
2007-02-09 07:42:09 51°16.265 2°54.351 6.2518 3.176616 30.534134 -2.871232
2007-02-09 07:42:14 51°16.266 2°54.348 6.2517 3.176616 30.534134 -2.871232
2007-02-09 07:42:18 51°16.266 2°54.346 6.2524 3.17227 30.487026 -2.871232
2007-02-09 07:42:24 51°16.267 2°54.342 6.2528 3.177341 30.54096 -2.871232
2007-02-09 07:42:28 51°16.268 2°54.341 6.2489 3.170304 30.466116 -2.871232
2007-02-09 07:42:34 51°16.268 2°54.337 6.2567 3.176513 30.533912 -2.871232
2007-02-09 07:42:39 51°16.269 2°54.335 6.2528 3.171856 30.485258 -2.871232
2007-02-09 07:42:44 51°16.269 2°54.333 6.254 3.171856 30.485258 -2.871232
2007-02-09 07:42:48 51°16.27 2°54.331 6.2507 3.174443 30.512775 -2.871232
2007-02-09 07:42:53 51°16.27 2°54.329 6.25 3.178583 30.556811 -2.871232
2007-02-09 07:42:59 51°16.271 2°54.327 6.2489 3.170821 30.474252 -2.871232
2007-02-09 07:43:04 51°16.271 2°54.326 6.2507 3.173615 30.503969 -2.871232
2007-02-09 07:43:08 51°16.272 2°54.324 6.2496 3.174754 30.515199 -2.871232
2007-02-09 07:43:13 51°16.272 2°54.323 6.2499 3.174754 30.515199 -2.871232
2007-02-09 07:43:18 51°16.272 2°54.322 6.2493 3.171339 30.478877 -2.871232
2007-02-09 07:43:24 51°16.273 2°54.32 6.2475 3.175168 30.519602 -2.871232
2007-02-09 07:43:28 51°16.273 2°54.319 6.255 3.174029 30.508372 -2.871232
2007-02-09 07:43:33 51°16.273 2°54.318 6.2491 3.174857 30.517178 -2.871232
2007-02-09 07:43:38 51°16.274 2°54.317 6.2467 3.17434 30.511674 -2.871232
2007-02-09 07:43:44 51°16.274 2°54.315 6.2436 3.17434 30.511674 -2.871232
2007-02-09 07:43:49 51°16.274 2°54.314 6.2387 3.174754 30.516957 -2.871232
2007-02-09 07:43:53 51°16.275 2°54.313 6.2433 3.17434 30.513432 -2.871232
2007-02-09 07:43:58 51°16.275 2°54.312 6.2417 3.178997 30.562975 -2.871232
2007-02-09 07:44:04 51°16.275 2°54.311 6.2397 3.165647 30.420106 -2.871232
2007-02-09 07:44:09 51°16.275 2°54.31 6.243 3.174236 30.512331 -2.871232
2007-02-09 07:44:13 51°16.275 2°54.309 6.2325 3.174236 30.512331 -2.871232
2007-02-09 07:44:18 51°16.276 2°54.308 6.2484 3.173512 30.505505 -2.871232
2007-02-09 07:44:24 51°16.276 2°54.307 6.252 3.177755 30.553283 -2.871232
2007-02-09 07:44:29 51°16.276 2°54.306 6.2471 3.175996 30.534565 -2.871232
2007-02-09 07:44:33 51°16.276 2°54.305 6.2527 3.168544 30.456181 -2.871232
2007-02-09 07:44:38 51°16.276 2°54.305 6.2489 3.178169 30.557688 -2.871232
2007-02-09 07:44:44 51°16.276 2°54.303 6.2477 3.178169 30.557688 -2.871232
2007-02-09 07:44:49 51°16.276 2°54.303 6.2548 3.176306 30.540507 -2.871232
2007-02-09 07:44:53 51°16.276 2°54.302 6.2498 3.171339 30.48678 -2.871232
2007-02-09 07:44:58 51°16.276 2°54.302 6.2487 3.169683 30.466533 -2.871232
2007-02-09 07:45:04 51°16.275 2°54.301 6.2503 3.161818 30.380273 -2.871232
2007-02-09 07:45:08 51°16.275 2°54.301 6.2491 3.177548 30.548441 -2.871232
2007-02-09 07:45:13 51°16.275 2°54.301 6.2509 3.177548 30.548441 -2.871232
2007-02-09 07:45:18 51°16.274 2°54.301 6.2437 3.172787 30.497799 -2.871232
2007-02-09 07:45:24 51°16.273 2°54.301 6.2431 3.177962 30.551965 -2.871232
2007-02-09 07:45:28 51°16.273 2°54.301 6.248 3.170304 30.470504 -2.871232
2007-02-09 07:45:33 51°16.272 2°54.301 6.2519 3.176823 30.538974 -2.871232
2007-02-09 07:45:39 51°16.272 2°54.301 6.25 3.175168 30.520481 -2.871232
2007-02-09 07:45:44 51°16.271 2°54.3 6.2464 3.175168 30.520481 -2.871232
2007-02-09 07:45:48 51°16.271 2°54.3 6.2531 3.18086 30.581034 -2.871232
2007-02-09 07:45:53 51°16.27 2°54.3 6.2478 3.177962 30.551965 -2.871232
2007-02-09 07:45:58 51°16.269 2°54.3 6.2471 3.171132 30.481065 -2.871232
2007-02-09 07:46:04 51°16.268 2°54.3 6.2455 3.177962 30.551965 -2.871232
2007-02-09 07:46:08 51°16.268 2°54.301 6.2491 3.169165 30.458398 -2.871232
2007-02-09 07:46:14 51°16.267 2°54.301 6.2453 3.169165 30.458398 -2.871232
2007-02-09 07:46:18 51°16.267 2°54.301 6.2434 3.1791 30.564076 -2.871232
2007-02-09 07:46:24 51°16.266 2°54.301 6.2393 3.178376 30.557249 -2.871232
2007-02-09 07:46:28 51°16.265 2°54.302 6.2408 3.159127 30.353419 -2.871232
2007-02-09 07:46:34 51°16.264 2°54.301 6.2449 3.175478 30.527301 -2.871232
2007-02-09 07:46:38 51°16.264 2°54.302 6.2426 3.177548 30.549321 -2.871232
2007-02-09 07:46:44 51°16.263 2°54.302 6.2436 3.177548 30.549321 -2.871232
2007-02-09 07:46:48 51°16.262 2°54.302 6.2428 3.179825 30.575307 -2.871232
2007-02-09 07:46:54 51°16.262 2°54.303 6.2403 3.178686 30.564074 -2.871232
2007-02-09 07:46:58 51°16.261 2°54.303 6.24 3.180135 30.581254 -2.871232
2007-02-09 07:47:04 51°16.26 2°54.303 6.2454 3.175375 30.530597 -2.871232
2007-02-09 07:47:08 51°16.26 2°54.303 6.2372 3.17879 30.566937 -2.871232
2007-02-09 07:47:14 51°16.259 2°54.303 6.2409 3.1791 30.570241 -2.871232
2007-02-09 07:47:18 51°16.258 2°54.304 6.2413 3.1791 30.570241 -2.871232
2007-02-09 07:47:24 51°16.257 2°54.304 6.2411 3.171028 30.486112 -2.871232
2007-02-09 07:47:28 51°16.257 2°54.304 6.2385 3.174443 30.522446 -2.871232
2007-02-09 07:47:33 51°16.256 2°54.305 6.2379 3.175478 30.532578 -2.871232
2007-02-09 07:47:38 51°16.255 2°54.305 6.2398 3.177444 30.554381 -2.871232
2007-02-09 07:47:44 51°16.254 2°54.305 6.2369 3.177444 30.554381 -2.871232
2007-02-09 07:47:48 51°16.254 2°54.306 6.2315 3.179307 30.575086 -2.871232
2007-02-09 07:47:53 51°16.253 2°54.306 6.2348 3.175685 30.53654 -2.871232
2007-02-09 07:47:58 51°16.252 2°54.306 6.2338 3.17672 30.547552 -2.871232
2007-02-09 07:48:04 51°16.251 2°54.307 6.2377 3.179514 30.577289 -2.871232
2007-02-09 07:48:08 51°16.25 2°54.307 6.2336 3.162128 30.393203 -2.871232
2007-02-09 07:48:13 51°16.25 2°54.308 6.2359 3.162128 30.393203 -2.871232
2007-02-09 07:48:18 51°16.249 2°54.308 6.2403 3.177134 30.553718 -2.871232
2007-02-09 07:48:24 51°16.248 2°54.308 6.233 3.17879 30.573103 -2.871232
2007-02-09 07:48:29 51°16.247 2°54.309 6.2352 3.177652 30.561867 -2.871232
2007-02-09 07:48:34 51°16.246 2°54.309 6.2352 3.179721 30.583898 -2.871232
2007-02-09 07:48:38 51°16.246 2°54.31 6.2355 3.172374 30.505699 -2.871232
2007-02-09 07:48:44 51°16.245 2°54.31 6.2299 3.172374 30.505699 -2.871232
2007-02-09 07:48:48 51°16.244 2°54.311 6.2337 3.178376 30.568697 -2.871232
2007-02-09 07:48:54 51°16.243 2°54.311 6.2292 3.179514 30.579932 -2.871232
2007-02-09 07:48:58 51°16.243 2°54.312 6.2315 3.176306 30.546668 -2.871232
2007-02-09 07:49:04 51°16.242 2°54.312 6.2327 3.179411 30.580593 -2.871232
2007-02-09 07:49:08 51°16.241 2°54.312 6.2322 3.17672 30.553715 -2.871232
2007-02-09 07:49:14 51°16.24 2°54.313 6.2257 3.176824 30.556578 -2.871232
2007-02-09 07:49:18 51°16.24 2°54.313 6.2307 3.176824 30.556578 -2.871232
2007-02-09 07:49:24 51°16.239 2°54.313 6.2309 3.173512 30.521331 -2.871232
2007-02-09 07:49:28 51°16.238 2°54.314 6.2281 3.173616 30.523312 -2.871232
2007-02-09 07:49:34 51°16.237 2°54.314 6.2284 3.177445 30.563188 -2.871232
2007-02-09 07:49:38 51°16.236 2°54.315 6.2274 3.178583 30.575306 -2.871232
2007-02-09 07:49:44 51°16.235 2°54.315 6.2304 3.178583 30.575306 -2.871232
2007-02-09 07:49:48 51°16.234 2°54.316 6.2372 3.178479 30.575085 -2.871232
2007-02-09 07:49:53 51°16.233 2°54.316 6.2345 3.173305 30.520887 -2.871232
2007-02-09 07:49:58 51°16.233 2°54.317 6.2342 3.17848 30.576848 -2.871232
2007-02-09 07:50:04 51°16.232 2°54.317 6.2347 3.177445 30.565831 -2.871232
2007-02-09 07:50:08 51°16.231 2°54.318 6.232 3.175168 30.541595 -2.871232
2007-02-09 07:50:13 51°16.23 2°54.318 6.2314 3.175168 30.541595 -2.871232
2007-02-09 07:50:18 51°16.229 2°54.319 6.2281 3.177031 30.560543 -2.871232
2007-02-09 07:50:24 51°16.228 2°54.319 6.2285 3.173719 30.522654 -2.871232
2007-02-09 07:50:28 51°16.227 2°54.32 6.2273 3.175168 30.537193 -2.871232
2007-02-09 07:50:34 51°16.226 2°54.32 6.2298 3.179618 30.58456 -2.871232
2007-02-09 07:50:38 51°16.226 2°54.321 6.2284 3.176203 30.549088 -2.871232
2007-02-09 07:50:44 51°16.225 2°54.321 6.2227 3.176513 30.553273 -2.871232
2007-02-09 07:50:48 51°16.224 2°54.322 6.2279 3.176513 30.553273 -2.871232
2007-02-09 07:50:54 51°16.223 2°54.322 6.2317 3.17465 30.535207 -2.871232
2007-02-09 07:50:58 51°16.222 2°54.323 6.2342 3.174547 30.534985 -2.871232
2007-02-09 07:51:04 51°16.221 2°54.323 6.2314 3.177341 30.564729 -2.871232
2007-02-09 07:51:08 51°16.221 2°54.324 6.2334 3.177445 30.567593 -2.871232
2007-02-09 07:51:14 51°16.22 2°54.324 6.2296 3.177445 30.567593 -2.871232
2007-02-09 07:51:18 51°16.219 2°54.325 6.2316 3.177859 30.572881 -2.871232
2007-02-09 07:51:24 51°16.218 2°54.325 6.2312 3.175892 30.551067 -2.871232
2007-02-09 07:51:28 51°16.217 2°54.326 6.2273 3.175271 30.542696 -2.871232
2007-02-09 07:51:34 51°16.216 2°54.326 6.2279 3.177445 30.56495 -2.871232
2007-02-09 07:51:38 51°16.215 2°54.327 6.2258 3.172788 30.51538 -2.871232
2007-02-09 07:51:44 51°16.214 2°54.327 6.231 3.172788 30.51538 -2.871232
2007-02-09 07:51:48 51°16.214 2°54.327 6.2346 3.178273 30.573763 -2.871232
2007-02-09 07:51:53 51°16.213 2°54.327 6.2338 3.180446 30.597782 -2.871232
2007-02-09 07:51:58 51°16.213 2°54.327 6.2289 3.175582 30.546001 -2.871232
2007-02-09 07:52:04 51°16.212 2°54.327 6.2287 3.177031 30.562305 -2.871232
2007-02-09 07:52:09 51°16.212 2°54.326 6.2287 3.179411 30.587646 -2.871232
2007-02-09 07:52:13 51°16.212 2°54.326 6.2269 3.179411 30.587646 -2.871232
2007-02-09 07:52:18 51°16.211 2°54.325 6.2236 3.177962 30.571339 -2.871232
2007-02-09 07:52:24 51°16.211 2°54.324 6.2254 3.179204 30.582797 -2.871232
2007-02-09 07:52:28 51°16.211 2°54.323 6.2261 3.179928 30.591391 -2.871232
2007-02-09 07:52:33 51°16.212 2°54.322 6.2242 3.180446 30.597782 -2.871232
2007-02-09 07:52:38 51°16.212 2°54.32 6.225 3.174236 30.531681 -2.871232
2007-02-09 07:52:44 51°16.212 2°54.318 6.2222 3.174029 30.530358 -2.871232
2007-02-09 07:52:48 51°16.213 2°54.317 6.2236 3.174029 30.530358 -2.871232
2007-02-09 07:52:54 51°16.214 2°54.314 6.2242 3.174236 30.534321 -2.871232
2007-02-09 07:52:59 51°16.215 2°54.311 6.2241 3.17434 30.536303 -2.871232
2007-02-09 07:53:04 51°16.216 2°54.308 6.2251 3.178583 30.582357 -2.871232
2007-02-09 07:53:10 51°16.218 2°54.305 6.2262 3.178894 30.585663 -2.871232
2007-02-09 07:53:15 51°16.221 2°54.302 6.2253 3.178894 30.585663 -2.871232
2007-02-09 07:53:21 51°16.223 2°54.298 6.2262 3.177238 30.568914 -2.871232
2007-02-09 07:53:26 51°16.226 2°54.295 6.2225 3.178066 30.576848 -2.871232
2007-02-09 07:53:32 51°16.229 2°54.29 6.2255 3.1791 30.587867 -2.871232
2007-02-09 07:53:37 51°16.233 2°54.287 6.2281 3.179307 30.589189 -2.871232
2007-02-09 07:53:42 51°16.236 2°54.283 6.2255 3.180963 30.606821 -2.871232
2007-02-09 07:53:47 51°16.24 2°54.279 6.2276 3.180963 30.606821 -2.871232
2007-02-09 07:53:52 51°16.244 2°54.276 6.2253 3.18293 30.62776 -2.871232
2007-02-09 07:53:57 51°16.247 2°54.273 6.2283 3.176927 30.563846 -2.871232
2007-02-09 07:54:02 51°16.251 2°54.27 6.2271 3.179514 30.591393 -2.871232
2007-02-09 07:54:07 51°16.254 2°54.267 6.2266 3.179204 30.588087 -2.871232
2007-02-09 07:54:12 51°16.257 2°54.264 6.2274 3.177859 30.573763 -2.871232
2007-02-09 07:54:17 51°16.26 2°54.263 6.2284 3.177859 30.573763 -2.871232
2007-02-09 07:54:22 51°16.262 2°54.26 6.228 3.178169 30.576187 -2.871232
2007-02-09 07:54:27 51°16.264 2°54.259 6.2267 3.179721 30.592715 -2.871232
2007-02-09 07:54:32 51°16.265 2°54.258 6.2263 3.181274 30.608362 -2.871232
2007-02-09 07:54:36 51°16.266 2°54.257 6.2261 3.177445 30.567593 -2.871232
2007-02-09 07:54:41 51°16.266 2°54.257 6.2243 3.175582 30.547762 -2.871232
2007-02-09 07:54:46 51°16.265 2°54.257 6.2232 3.172581 30.516696 -2.871232
2007-02-09 07:54:51 51°16.264 2°54.259 6.2261 3.172581 30.516696 -2.871232
2007-02-09 07:54:56 51°16.263 2°54.261 6.227 3.157989 30.361435 -2.871232
2007-02-09 07:55:00 51°16.261 2°54.263 6.225 3.164405 30.429692 -2.871232
2007-02-09 07:55:05 51°16.26 2°54.267 6.2256 3.172581 30.516696 -2.871232
2007-02-09 07:55:10 51°16.259 2°54.271 6.2241 3.173409 30.526388 -2.871232
2007-02-09 07:55:15 51°16.257 2°54.275 6.224 3.173409 30.526388 -2.871232
2007-02-09 07:55:19 51°16.257 2°54.279 6.223 3.166889 30.457876 -2.871232
2007-02-09 07:55:24 51°16.256 2°54.284 6.2243 3.168338 30.474173 -2.871232
2007-02-09 07:55:29 51°16.255 2°54.288 6.2248 3.166164 30.450167 -2.871232
2007-02-09 07:55:34 51°16.254 2°54.293 6.2277 3.164509 30.433425 -2.871232
2007-02-09 07:55:38 51°16.254 2°54.296 6.2256 3.16989 30.490695 -2.871232
2007-02-09 07:55:44 51°16.253 2°54.3 6.2264 3.16989 30.490695 -2.871232
2007-02-09 07:55:49 51°16.253 2°54.302 6.2264 3.168441 30.476153 -2.871232
2007-02-09 07:55:54 51°16.252 2°54.304 6.2271 3.168752 30.479457 -2.871232
2007-02-09 07:55:58 51°16.252 2°54.304 6.2236 3.168131 30.472849 -2.871232
2007-02-09 07:56:04 51°16.251 2°54.304 6.2231 3.169683 30.487613 -2.871232
2007-02-09 07:56:09 51°16.251 2°54.304 6.2216 3.173616 30.529472 -2.871232
2007-02-09 07:56:14 51°16.25 2°54.304 6.2221 3.167924 30.468889 -2.871232
2007-02-09 07:56:18 51°16.25 2°54.304 6.2232 3.167924 30.468889 -2.871232
2007-02-09 07:56:24 51°16.25 2°54.304 6.2211 3.168855 30.478801 -2.871232
2007-02-09 07:56:29 51°16.249 2°54.304 6.2231 3.169062 30.480125 -2.871232
2007-02-09 07:56:33 51°16.249 2°54.304 6.2223 3.170925 30.50171 -2.871232
2007-02-09 07:56:39 51°16.248 2°54.305 6.2203 3.160162 30.388055 -2.871232
2007-02-09 07:56:44 51°16.248 2°54.305 6.2207 3.160162 30.388055 -2.871232
2007-02-09 07:56:49 51°16.248 2°54.305 6.2205 3.164405 30.434078 -2.871232
2007-02-09 07:56:54 51°16.247 2°54.305 6.2202 3.171856 30.513383 -2.871232
2007-02-09 07:56:58 51°16.247 2°54.305 6.2183 3.160783 30.395538 -2.871232
2007-02-09 07:57:04 51°16.247 2°54.305 6.2211 3.173409 30.530789 -2.871232
2007-02-09 07:57:08 51°16.246 2°54.305 6.2206 3.160162 30.389808 -2.871232
2007-02-09 07:57:14 51°16.246 2°54.305 6.219 3.160162 30.389808 -2.871232
2007-02-09 07:57:18 51°16.245 2°54.305 6.2214 3.163784 30.429225 -2.871232
2007-02-09 07:57:24 51°16.245 2°54.305 6.2231 3.162129 30.411606 -2.871232
2007-02-09 07:57:29 51°16.244 2°54.305 6.2193 3.167303 30.466672 -2.871232
2007-02-09 07:57:34 51°16.244 2°54.305 6.22 3.172374 30.520651 -2.871232
2007-02-09 07:57:38 51°16.244 2°54.306 6.2202 3.160576 30.395088 -2.871232
2007-02-09 07:57:44 51°16.243 2°54.306 6.2191 3.160576 30.395088 -2.871232
2007-02-09 07:57:49 51°16.243 2°54.306 6.2191 3.171753 30.514921 -2.871232
2007-02-09 07:57:54 51°16.242 2°54.306 6.2174 3.16306 30.422394 -2.871232
2007-02-09 07:57:58 51°16.242 2°54.306 6.2184 3.171028 30.507209 -2.871232
2007-02-09 07:58:04 51°16.242 2°54.306 6.2189 3.165337 30.446623 -2.871232
2007-02-09 07:58:09 51°16.241 2°54.306 6.219 3.173926 30.538939 -2.871232
2007-02-09 07:58:14 51°16.241 2°54.306 6.2216 3.171235 30.510292 -2.871232
2007-02-09 07:58:19 51°16.24 2°54.306 6.2188 3.171235 30.510292 -2.871232
2007-02-09 07:58:24 51°16.24 2°54.306 6.2197 3.165647 30.451684 -2.871232
2007-02-09 07:58:28 51°16.239 2°54.307 6.2187 3.178687 30.590515 -2.871232
2007-02-09 07:58:34 51°16.239 2°54.307 6.2191 3.161094 30.402347 -2.871232
2007-02-09 07:58:38 51°16.239 2°54.307 6.219 3.166372 30.459394 -2.871232
2007-02-09 07:58:44 51°16.238 2°54.307 6.2193 3.166372 30.459394 -2.871232
2007-02-09 07:58:49 51°16.238 2°54.307 6.2193 3.166682 30.46182 -2.871232
2007-02-09 07:58:53 51°16.237 2°54.307 6.219 3.175064 30.551061 -2.871232
2007-02-09 07:58:59 51°16.236 2°54.308 6.2202 3.147848 30.261438 -2.871232
2007-02-09 07:59:04 51°16.236 2°54.308 6.2202 3.186448 30.673194 -2.871232
2007-02-09 07:59:09 51°16.236 2°54.308 6.2195 3.186345 30.672092 -2.871232
2007-02-09 07:59:14 51°16.235 2°54.308 6.2206 3.186345 30.672092 -2.871232
2007-02-09 07:59:18 51°16.235 2°54.308 6.2184 3.186345 30.672092 -2.871232
2007-02-09 07:59:24 51°16.234 2°54.308 6.221 3.186241 30.670989 -2.871232
2007-02-09 07:59:28 51°16.234 2°54.308 6.219 3.186138 30.669002 -2.871232
2007-02-09 07:59:34 51°16.233 2°54.309 6.222 3.185931 30.666797 -2.871232
2007-02-09 07:59:38 51°16.233 2°54.309 6.2195 3.18562 30.663489 -2.871232
2007-02-09 07:59:44 51°16.233 2°54.309 6.2191 3.18562 30.663489 -2.871232
2007-02-09 07:59:49 51°16.232 2°54.309 6.2179 3.185207 30.659963 -2.871232
2007-02-09 07:59:54 51°16.232 2°54.309 6.2165 3.184896 30.656656 -2.871232
2007-02-09 07:59:58 51°16.231 2°54.31 6.2167 3.184482 30.652246 -2.871232
2007-02-09 08:00:04 51°16.231 2°54.31 6.2166 3.184275 30.649157 -2.871232
2007-02-09 08:00:09 51°16.23 2°54.31 6.2172 3.184068 30.646952 -2.871232
2007-02-09 08:00:14 51°16.23 2°54.31 6.2152 3.184068 30.646952 -2.871232
2007-02-09 08:00:18 51°16.229 2°54.31 6.2157 3.183965 30.64585 -2.871232
2007-02-09 08:00:24 51°16.229 2°54.311 6.2158 3.183654 30.643426 -2.871232
2007-02-09 08:00:29 51°16.228 2°54.311 6.2159 3.183551 30.643207 -2.871232
2007-02-09 08:00:34 51°16.228 2°54.311 6.2162 3.183344 30.641002 -2.871232
2007-02-09 08:00:39 51°16.228 2°54.312 6.216 3.183033 30.637695 -2.871232
2007-02-09 08:00:44 51°16.227 2°54.312 6.216 3.183033 30.637695 -2.871232
2007-02-09 08:00:48 51°16.227 2°54.312 6.2166 3.182723 30.635271 -2.871232
2007-02-09 08:00:54 51°16.227 2°54.313 6.2156 3.182619 30.634168 -2.871232
2007-02-09 08:00:58 51°16.226 2°54.313 6.2162 3.182412 30.631964 -2.871232
2007-02-09 08:01:04 51°16.225 2°54.314 6.2133 3.182309 30.630861 -2.871232
2007-02-09 08:01:09 51°16.225 2°54.314 6.2148 3.182102 30.62954 -2.871232
2007-02-09 08:01:13 51°16.224 2°54.314 6.2148 3.182102 30.62954 -2.871232
2007-02-09 08:01:19 51°16.224 2°54.315 6.2151 3.181791 30.626232 -2.871232
2007-02-09 08:01:24 51°16.223 2°54.315 6.2136 3.181688 30.62513 -2.871232
2007-02-09 08:01:28 51°16.223 2°54.315 6.2155 3.181481 30.622925 -2.871232
2007-02-09 08:01:34 51°16.222 2°54.316 6.2096 3.181377 30.622706 -2.871232
2007-02-09 08:01:38 51°16.222 2°54.316 6.2094 3.18117 30.621384 -2.871232
2007-02-09 08:01:44 51°16.221 2°54.317 6.2125 3.181067 30.620281 -2.871232
2007-02-09 08:01:49 51°16.221 2°54.318 6.2128 3.181067 30.620281 -2.871232
2007-02-09 08:01:53 51°16.22 2°54.32 6.2125 3.181067 30.620281 -2.871232
2007-02-09 08:01:58 51°16.22 2°54.322 6.2115 3.180963 30.619179 -2.871232
2007-02-09 08:02:04 51°16.219 2°54.324 6.2084 3.18086 30.619843 -2.871232
2007-02-09 08:02:09 51°16.218 2°54.327 6.2061 3.180653 30.618521 -2.871232
2007-02-09 08:02:14 51°16.216 2°54.329 6.2041 3.180653 30.618521 -2.871232
2007-02-09 08:02:18 51°16.215 2°54.332 6.2074 3.18055 30.617418 -2.871232
2007-02-09 08:02:24 51°16.213 2°54.335 6.2046 3.180653 30.617638 -2.871232
2007-02-09 08:02:28 51°16.212 2°54.337 6.2033 3.18055 30.616535 -2.871232
2007-02-09 08:02:33 51°16.21 2°54.34 6.2055 3.180343 30.61433 -2.871232
2007-02-09 08:02:39 51°16.207 2°54.344 6.206 3.180032 30.612788 -2.871232
2007-02-09 08:02:44 51°16.205 2°54.347 6.2072 3.180032 30.612788 -2.871232
2007-02-09 08:02:48 51°16.203 2°54.349 6.2061 3.179722 30.609481 -2.871232
2007-02-09 08:02:54 51°16.199 2°54.351 6.2041 3.179618 30.610144 -2.871232
2007-02-09 08:02:58 51°16.197 2°54.354 6.2059 3.179411 30.609705 -2.871232
2007-02-09 08:03:04 51°16.193 2°54.355 6.2087 3.179515 30.610808 -2.871232
2007-02-09 08:03:09 51°16.19 2°54.357 6.2094 3.179825 30.614116 -2.871232
2007-02-09 08:03:13 51°16.187 2°54.357 6.2081 3.179825 30.614116 -2.871232
2007-02-09 08:03:18 51°16.183 2°54.358 6.2066 3.180032 30.615438 -2.871232
2007-02-09 08:03:24 51°16.179 2°54.358 6.207 3.180032 30.615438 -2.871232
2007-02-09 08:03:29 51°16.175 2°54.358 6.2032 3.180032 30.615438 -2.871232
2007-02-09 08:03:33 51°16.172 2°54.357 6.2007 3.180239 30.61676 -2.871232
2007-02-09 08:03:39 51°16.167 2°54.356 6.1992 3.180446 30.618082 -2.871232
2007-02-09 08:03:44 51°16.163 2°54.354 6.1968 3.180446 30.618082 -2.871232
2007-02-09 08:03:49 51°16.16 2°54.352 6.1959 3.180446 30.618082 -2.871232
2007-02-09 08:03:53 51°16.157 2°54.35 6.1975 3.180343 30.616979 -2.871232
2007-02-09 08:03:58 51°16.153 2°54.347 6.1963 3.180239 30.61676 -2.871232
2007-02-09 08:04:04 51°16.148 2°54.343 6.1974 3.180032 30.615438 -2.871232
2007-02-09 08:04:09 51°16.145 2°54.339 6.1992 3.179618 30.613676 -2.871232
2007-02-09 08:04:13 51°16.142 2°54.336 6.1999 3.179618 30.613676 -2.871232
2007-02-09 08:04:18 51°16.139 2°54.332 6.2007 3.179618 30.615443 -2.871232
2007-02-09 08:04:24 51°16.135 2°54.326 6.1992 3.179411 30.615004 -2.871232
2007-02-09 08:04:29 51°16.132 2°54.321 6.1983 3.179515 30.61699 -2.871232
2007-02-09 08:04:33 51°16.13 2°54.317 6.1959 3.179722 30.619196 -2.871232
2007-02-09 08:04:37 51°16.128 2°54.311 6.1931 3.179825 30.620299 -2.871232
2007-02-09 08:04:44 51°16.124 2°54.302 6.1937 3.179825 30.620299 -2.871232
2007-02-09 08:04:49 51°16.122 2°54.294 6.1918 3.179929 30.620518 -2.871232
2007-02-09 08:04:54 51°16.119 2°54.286 6.1916 3.179929 30.620518 -2.871232
2007-02-09 08:04:58 51°16.118 2°54.278 6.1946 3.180032 30.621621 -2.871232
2007-02-09 08:05:04 51°16.116 2°54.267 6.1942 3.180032 30.622505 -2.871232
2007-02-09 08:05:08 51°16.115 2°54.26 6.1959 3.179825 30.622066 -2.871232
2007-02-09 08:05:14 51°16.115 2°54.248 6.1974 3.179825 30.622066 -2.871232
2007-02-09 08:05:18 51°16.115 2°54.24 6.1934 3.179515 30.620524 -2.871232
2007-02-09 08:05:24 51°16.116 2°54.226 6.1925 3.179411 30.620305 -2.871232
2007-02-09 08:05:29 51°16.117 2°54.214 6.1923 3.179411 30.621188 -2.871232
2007-02-09 08:05:33 51°16.119 2°54.202 6.1953 3.179515 30.621408 -2.871232
2007-02-09 08:05:39 51°16.122 2°54.183 6.1972 3.179722 30.621847 -2.871232
2007-02-09 08:05:44 51°16.124 2°54.164 6.1995 3.179722 30.621847 -2.871232
2007-02-09 08:05:49 51°16.125 2°54.143 6.2024 3.179929 30.624053 -2.871232
2007-02-09 08:05:53 51°16.126 2°54.124 6.2043 3.179929 30.624936 -2.871232
2007-02-09 08:05:58 51°16.127 2°54.101 6.2063 3.179722 30.624498 -2.871232
2007-02-09 08:06:04 51°16.127 2°54.07 6.2078 3.179618 30.623395 -2.871232
2007-02-09 08:06:09 51°16.127 2°54.044 6.2091 3.179825 30.624717 -2.871232
2007-02-09 08:06:13 51°16.126 2°54.022 6.2083 3.179825 30.624717 -2.871232
2007-02-09 08:06:18 51°16.125 2°53.995 6.2136 3.179929 30.624936 -2.871232
2007-02-09 08:06:24 51°16.123 2°53.961 6.2151 3.180136 30.625375 -2.871232
2007-02-09 08:06:29 51°16.121 2°53.932 6.2157 3.180343 30.62493 -2.871232
2007-02-09 08:06:34 51°16.119 2°53.903 6.218 3.180343 30.624046 -2.871232
2007-02-09 08:06:38 51°16.118 2°53.879 6.2217 3.180446 30.622498 -2.871232
2007-02-09 08:06:44 51°16.115 2°53.842 6.2242 3.180446 30.622498 -2.871232
2007-02-09 08:06:48 51°16.113 2°53.819 6.225 3.179618 30.61191 -2.871232
2007-02-09 08:06:53 51°16.111 2°53.788 6.2288 3.179515 30.609042 -2.871232
2007-02-09 08:06:59 51°16.109 2°53.751 6.2314 3.179722 30.607715 -2.871232
2007-02-09 08:07:04 51°16.106 2°53.721 6.2314 3.179308 30.60154 -2.871232
2007-02-09 08:07:09 51°16.104 2°53.69 6.2353 3.177548 30.580155 -2.871232
2007-02-09 08:07:14 51°16.102 2°53.659 6.2381 3.178687 30.58875 -2.871232
2007-02-09 08:07:18 51°16.1 2°53.635 6.2411 3.178687 30.58875 -2.871232
2007-02-09 08:07:24 51°16.098 2°53.598 6.2449 3.177755 30.576187 -2.871232
2007-02-09 08:07:28 51°16.096 2°53.573 6.2469 3.17848 30.581255 -2.871232
2007-02-09 08:07:34 51°16.094 2°53.535 6.2489 3.176306 30.555474 -2.871232
2007-02-09 08:07:39 51°16.092 2°53.505 6.2493 3.176513 30.555916 -2.871232
2007-02-09 08:07:44 51°16.09 2°53.474 6.2536 3.176513 30.555916 -2.871232
2007-02-09 08:07:48 51°16.089 2°53.449 6.2552 3.173822 30.524635 -2.871232
2007-02-09 08:07:54 51°16.086 2°53.412 6.2604 3.163784 30.414318 -2.871232
2007-02-09 08:07:58 51°16.085 2°53.387 6.268 3.166578 30.440531 -2.871232
2007-02-09 08:08:04 51°16.083 2°53.349 6.2671 3.165854 30.430195 -2.871232
2007-02-09 08:08:08 51°16.081 2°53.325 6.2787 3.177755 30.555044 -2.871232
2007-02-09 08:08:13 51°16.079 2°53.293 6.2841 3.177755 30.555044 -2.871232
2007-02-09 08:08:19 51°16.078 2°53.256 6.2964 3.180963 30.587421 -2.871232
2007-02-09 08:08:24 51°16.075 2°53.225 6.3062 3.177651 30.548662 -2.871232
2007-02-09 08:08:29 51°16.075 2°53.194 6.3183 3.178997 30.559454 -2.871232
2007-02-09 08:08:34 51°16.072 2°53.163 6.3272 3.177444 30.538542 -2.871232
2007-02-09 08:08:38 51°16.072 2°53.138 6.3336 3.175892 30.516759 -2.871232
2007-02-09 08:08:44 51°16.07 2°53.1 6.3376 3.180756 30.562326 -2.871232
2007-02-09 08:08:49 51°16.069 2°53.069 6.3407 3.180756 30.562326 -2.871232
2007-02-09 08:08:53 51°16.067 2°53.044 6.3343 3.179307 30.538129 -2.871232
2007-02-09 08:08:58 51°16.067 2°53.013 6.3145 3.184688 30.583897 -2.871232
2007-02-09 08:09:04 51°16.065 2°52.975 6.294 3.19038 30.633827 -2.871232
2007-02-09 08:09:09 51°16.063 2°52.944 6.2808 3.191001 30.630736 -2.871232
2007-02-09 08:09:13 51°16.063 2°52.919 6.2742 3.190483 30.617317 -2.871232
2007-02-09 08:09:18 51°16.061 2°52.887 6.2705 3.190483 30.617317 -2.871232
2007-02-09 08:09:24 51°16.06 2°52.85 6.2706 3.195865 30.669195 -2.871232
2007-02-09 08:09:28 51°16.059 2°52.825 6.2682 3.186758 30.575112 -2.871232
2007-02-09 08:09:34 51°16.057 2°52.787 6.2682 3.188724 30.607428 -2.871232
2007-02-09 08:09:37 51°16.056 2°52.768 6.2666 3.187586 30.610295 -2.871232
2007-02-09 08:09:44 51°16.053 2°52.724 6.2665 3.187586 30.610295 -2.871232
2007-02-09 08:09:49 51°16.052 2°52.693 6.2658 3.185516 30.597979 -2.871232
2007-02-09 08:09:54 51°16.05 2°52.662 6.2682 3.181377 30.56277 -2.871232
2007-02-09 08:09:58 51°16.048 2°52.637 6.2699 3.17941 30.547141 -2.871232
2007-02-09 08:10:04 51°16.046 2°52.599 6.2732 3.172166 30.47276 -2.871232
2007-02-09 08:10:09 51°16.044 2°52.568 6.2769 3.175892 30.515002 -2.871232
2007-02-09 08:10:14 51°16.043 2°52.536 6.2773 3.180342 30.563203 -2.871232
2007-02-09 08:10:18 51°16.041 2°52.511 6.2782 3.180342 30.563203 -2.871232
2007-02-09 08:10:24 51°16.039 2°52.473 6.2766 3.171131 30.466145 -2.871232
2007-02-09 08:10:29 51°16.038 2°52.442 6.2761 3.180445 30.564304 -2.871232
2007-02-09 08:10:33 51°16.036 2°52.417 6.2769 3.169476 30.445913 -2.871232
2007-02-09 08:10:39 51°16.035 2°52.379 6.2765 3.167613 30.423487 -2.871232
2007-02-09 08:10:44 51°16.034 2°52.347 6.2772 3.167613 30.423487 -2.871232
2007-02-09 08:10:49 51°16.032 2°52.316 6.2793 3.178272 30.535037 -2.871232
2007-02-09 08:10:53 51°16.031 2°52.291 6.2769 3.170096 30.447254 -2.871232
2007-02-09 08:10:58 51°16.03 2°52.26 6.2778 3.171338 30.460452 -2.871232
2007-02-09 08:11:03 51°16.028 2°52.228 6.2779 3.176099 30.511054 -2.871232
2007-02-09 08:11:09 51°16.027 2°52.191 6.2805 3.177444 30.525356 -2.871232
2007-02-09 08:11:13 51°16.026 2°52.166 6.2774 3.177444 30.525356 -2.871232
2007-02-09 08:11:19 51°16.024 2°52.128 6.2784 3.18148 30.567389 -2.871232
2007-02-09 08:11:24 51°16.023 2°52.097 6.282 3.180652 30.557707 -2.871232
2007-02-09 08:11:29 51°16.022 2°52.065 6.2857 3.183654 30.589619 -2.871232
2007-02-09 08:11:33 51°16.021 2°52.04 6.2882 3.179824 30.548904 -2.871232
2007-02-09 08:11:39 51°16.019 2°52.003 6.2899 3.184585 30.598643 -2.871232
2007-02-09 08:11:44 51°16.018 2°51.971 6.2855 3.184585 30.598643 -2.871232
2007-02-09 08:11:49 51°16.017 2°51.94 6.2913 3.181273 30.563429 -2.871232
2007-02-09 08:11:54 51°16.016 2°51.909 6.2963 3.173512 30.480042 -2.871232
2007-02-09 08:11:58 51°16.015 2°51.884 6.2976 3.181377 30.56277 -2.871232
2007-02-09 08:12:04 51°16.013 2°51.846 6.2967 3.18355 30.583236 -2.871232
2007-02-09 08:12:08 51°16.012 2°51.821 6.3052 3.187483 30.622408 -2.871232
2007-02-09 08:12:14 51°16.011 2°51.783 6.3143 3.167613 30.41123 -2.871232
2007-02-09 08:12:19 51°16.009 2°51.752 6.3423 3.167613 30.41123 -2.871232
2007-02-09 08:12:24 51°16.008 2°51.72 6.3563 3.185723 30.60194 -2.871232
2007-02-09 08:12:28 51°16.007 2°51.695 6.3689 3.190277 30.647711 -2.871232
2007-02-09 08:12:34 51°16.005 2°51.658 6.3798 3.196176 30.707792 -2.871232
2007-02-09 08:12:38 51°16.004 2°51.633 6.3856 3.184585 30.581038 -2.871232
2007-02-09 08:12:44 51°16.002 2°51.595 6.3875 3.184585 30.581038 -2.871232
2007-02-09 08:12:48 51°16.001 2°51.57 6.3884 3.199281 30.731088 -2.871232
2007-02-09 08:12:53 51°16 2°51.539 6.3878 3.206939 30.798362 -2.871232
2007-02-09 08:12:58 51°15.999 2°51.507 6.3892 3.20994 30.814328 -2.871232
2007-02-09 08:13:04 51°15.997 2°51.47 6.3962 3.214494 30.847661 -2.871232
2007-02-09 08:13:09 51°15.996 2°51.439 6.4008 3.221739 30.913106 -2.871232
2007-02-09 08:13:14 51°15.995 2°51.407 6.4081 3.221739 30.913106 -2.871232
2007-02-09 08:13:18 51°15.993 2°51.382 6.4122 3.223912 30.928207 -2.871232
2007-02-09 08:13:24 51°15.992 2°51.345 6.4118 3.227328 30.960048 -2.871232
2007-02-09 08:13:28 51°15.991 2°51.32 6.416 3.231261 31.000052 -2.871232
2007-02-09 08:13:33 51°15.989 2°51.288 6.4166 3.230226 30.985499 -2.871232
2007-02-09 08:13:38 51°15.988 2°51.257 6.417 3.229811 30.975769 -2.871232
2007-02-09 08:13:44 51°15.986 2°51.219 6.4177 3.229811 30.975769 -2.871232
2007-02-09 08:13:49 51°15.984 2°51.188 6.4222 3.227741 30.948459 -2.871232
2007-02-09 08:13:54 51°15.983 2°51.156 6.4243 3.227431 30.939837 -2.871232
2007-02-09 08:13:58 51°15.982 2°51.131 6.425 3.233537 31.001113 -2.871232
2007-02-09 08:14:04 51°15.981 2°51.093 6.4237 3.233227 30.994261 -2.871232
2007-02-09 08:14:09 51°15.981 2°51.062 6.4267 3.232502 30.984794 -2.871232
2007-02-09 08:14:14 51°15.982 2°51.03 6.4295 3.232502 30.984794 -2.871232
2007-02-09 08:14:18 51°15.983 2°51.005 6.4339 3.239747 31.059931 -2.871232
2007-02-09 08:14:24 51°15.986 2°50.968 6.437 3.238919 31.048469 -2.871232
2007-02-09 08:14:29 51°15.988 2°50.937 6.4361 3.238919 31.045799 -2.871232
2007-02-09 08:14:34 51°15.99 2°50.906 6.4358 3.239851 31.053017 -2.871232
2007-02-09 08:14:37 51°15.992 2°50.887 6.4414 3.237677 31.028168 -2.871232
2007-02-09 08:14:44 51°15.996 2°50.844 6.4498 3.237677 31.028168 -2.871232
2007-02-09 08:14:49 51°15.999 2°50.813 6.4519 3.240472 31.055159 -2.871232
2007-02-09 08:14:53 51°16.001 2°50.788 6.4491 3.244094 31.090939 -2.871232
2007-02-09 08:14:59 51°16.005 2°50.751 6.4526 3.243991 31.087168 -2.871232
2007-02-09 08:15:04 51°16.007 2°50.72 6.4585 3.24751 31.12363 -2.871232
2007-02-09 08:15:09 51°16.01 2°50.689 6.4617 3.242645 31.070216 -2.871232
2007-02-09 08:15:13 51°16.012 2°50.664 6.4722 3.242645 31.070216 -2.871232
2007-02-09 08:15:18 51°16.016 2°50.634 6.4755 3.249787 31.141557 -2.871232
2007-02-09 08:15:24 51°16.019 2°50.597 6.483 3.245647 31.094054 -2.871232
2007-02-09 08:15:29 51°16.022 2°50.566 6.4895 3.248441 31.121926 -2.871232
2007-02-09 08:15:33 51°16.024 2°50.541 6.4936 3.247406 31.107379 -2.871232
2007-02-09 08:15:37 51°16.026 2°50.517 6.4976 3.251754 31.149939 -2.871232
2007-02-09 08:15:44 51°16.03 2°50.474 6.5041 3.248648 31.110757 -2.871232
2007-02-09 08:15:49 51°16.033 2°50.443 6.5091 3.248648 31.110757 -2.871232
2007-02-09 08:15:53 51°16.035 2°50.419 6.5134 3.249373 31.112208 -2.871232
2007-02-09 08:15:59 51°16.039 2°50.382 6.5167 3.252167 31.134718 -2.871232
2007-02-09 08:16:04 51°16.042 2°50.352 6.5171 3.254237 31.151322 -2.871232
2007-02-09 08:16:09 51°16.044 2°50.321 6.5102 3.23395 30.930122 -2.871232
2007-02-09 08:16:14 51°16.048 2°50.29 6.4944 3.23395 30.930122 -2.871232
2007-02-09 08:16:18 51°16.05 2°50.265 6.4854 3.256928 31.168266 -2.871232
2007-02-09 08:16:24 51°16.054 2°50.229 6.4827 3.258999 31.183969 -2.871232
2007-02-09 08:16:28 51°16.056 2°50.204 6.4834 3.261379 31.20385 -2.871232
2007-02-09 08:16:34 51°16.059 2°50.167 6.48 3.253409 31.115834 -2.871232
2007-02-09 08:16:39 51°16.063 2°50.136 6.472 3.263139 31.218038 -2.871232
2007-02-09 08:16:44 51°16.066 2°50.105 6.4677 3.263139 31.218038 -2.871232
2007-02-09 08:16:48 51°16.068 2°50.081 6.4641 3.253823 31.124669 -2.871232
2007-02-09 08:16:54 51°16.072 2°50.043 6.4653 3.258792 31.186233 -2.871232
2007-02-09 08:16:58 51°16.074 2°50.018 6.4702 3.262311 31.229796 -2.871232
2007-02-09 08:17:04 51°16.078 2°49.981 6.4661 3.258378 31.190765 -2.871232
2007-02-09 08:17:08 51°16.081 2°49.956 6.4664 3.252374 31.131568 -2.871232
2007-02-09 08:17:13 51°16.084 2°49.925 6.4641 3.252374 31.131568 -2.871232
2007-02-09 08:17:19 51°16.088 2°49.887 6.4672 3.261379 31.232425 -2.871232
2007-02-09 08:17:24 51°16.091 2°49.857 6.4666 3.259309 31.214931 -2.871232
2007-02-09 08:17:29 51°16.094 2°49.825 6.4834 3.26138 31.238683 -2.871232
2007-02-09 08:17:34 51°16.097 2°49.794 6.4845 3.259206 31.214726 -2.871232
2007-02-09 08:17:38 51°16.099 2°49.769 6.4853 3.261173 31.237381 -2.871232
2007-02-09 08:17:44 51°16.103 2°49.732 6.4853 3.259309 31.218505 -2.871232
2007-02-09 08:17:48 51°16.106 2°49.707 6.4898 3.259309 31.218505 -2.871232
2007-02-09 08:17:53 51°16.109 2°49.676 6.4946 3.249062 31.109805 -2.871232
2007-02-09 08:17:58 51°16.112 2°49.645 6.5105 3.265623 31.281927 -2.871232
2007-02-09 08:18:04 51°16.115 2°49.607 6.5229 3.263346 31.251501 -2.871232
2007-02-09 08:18:09 51°16.118 2°49.576 6.5333 3.2679 31.296241 -2.871232
2007-02-09 08:18:14 51°16.121 2°49.545 6.5374 3.2679 31.296241 -2.871232
2007-02-09 08:18:18 51°16.123 2°49.52 6.5415 3.270281 31.31971 -2.871232
2007-02-09 08:18:24 51°16.126 2°49.482 6.5427 3.273904 31.355462 -2.871232
2007-02-09 08:18:28 51°16.128 2°49.457 6.5438 3.272662 31.336903 -2.871232
2007-02-09 08:18:33 51°16.131 2°49.426 6.5457 3.274732 31.349002 -2.871232
2007-02-09 08:18:39 51°16.134 2°49.389 6.549 3.266037 31.245184 -2.871232
2007-02-09 08:18:44 51°16.137 2°49.357 6.5547 3.266037 31.245184 -2.871232
2007-02-09 08:18:48 51°16.139 2°49.332 6.5578 3.276181 31.344655 -2.871232
2007-02-09 08:18:54 51°16.143 2°49.295 6.5622 3.26821 31.253036 -2.871232
2007-02-09 08:18:58 51°16.145 2°49.27 6.5647 3.272351 31.292434 -2.871232
2007-02-09 08:19:04 51°16.148 2°49.232 6.5682 3.277009 31.338209 -2.871232
2007-02-09 08:19:09 51°16.151 2°49.201 6.5709 3.278561 31.351079 -2.871232
2007-02-09 08:19:14 51°16.153 2°49.17 6.5739 3.276388 31.324471 -2.871232
2007-02-09 08:19:18 51°16.155 2°49.145 6.5756 3.276388 31.324471 -2.871232
2007-02-09 08:19:24 51°16.156 2°49.107 6.5785 3.275145 31.306843 -2.871232
2007-02-09 08:19:29 51°16.156 2°49.076 6.5818 3.273593 31.285934 -2.871232
2007-02-09 08:19:33 51°16.156 2°49.051 6.5851 3.271419 31.259349 -2.871232
2007-02-09 08:19:39 51°16.156 2°49.013 6.5828 3.271315 31.254684 -2.871232
2007-02-09 08:19:44 51°16.155 2°48.981 6.5837 3.271315 31.254684 -2.871232
2007-02-09 08:19:49 51°16.155 2°48.95 6.5844 3.274421 31.284878 -2.871232
2007-02-09 08:19:53 51°16.153 2°48.924 6.5833 3.272143 31.258097 -2.871232
2007-02-09 08:19:58 51°16.152 2°48.893 6.5841 3.265829 31.187721 -2.871232
2007-02-09 08:20:04 51°16.146 2°48.856 6.5893 3.271522 31.245283 -2.871232
2007-02-09 08:20:09 51°16.142 2°48.825 6.5921 3.268727 31.213042 -2.871232
2007-02-09 08:20:13 51°16.138 2°48.804 6.5959 3.268727 31.213042 -2.871232
2007-02-09 08:20:18 51°16.133 2°48.778 6.5992 3.26852 31.209961 -2.871232
2007-02-09 08:20:24 51°16.126 2°48.75 6.5954 3.268727 31.211261 -2.871232
2007-02-09 08:20:29 51°16.12 2°48.73 6.5942 3.277733 31.306543 -2.871232
2007-02-09 08:20:33 51°16.115 2°48.716 6.588 3.263448 31.154537 -2.871232
2007-02-09 08:20:39 51°16.107 2°48.697 6.5908 3.264484 31.162817 -2.871232
2007-02-09 08:20:44 51°16.099 2°48.685 6.5942 3.264484 31.162817 -2.871232
2007-02-09 08:20:49 51°16.092 2°48.674 6.594 3.275766 31.278593 -2.871232
2007-02-09 08:20:54 51°16.084 2°48.665 6.5999 3.279389 31.314244 -2.871232
2007-02-09 08:20:59 51°16.076 2°48.657 6.5963 3.277733 31.296722 -2.871232
2007-02-09 08:21:04 51°16.068 2°48.651 6.5913 3.278768 31.310352 -2.871232
2007-02-09 08:21:08 51°16.063 2°48.646 6.587 3.277422 31.2979 -2.871232
2007-02-09 08:21:14 51°16.054 2°48.639 6.5854 3.274628 31.267439 -2.871232
2007-02-09 08:21:18 51°16.049 2°48.633 6.5822 3.274628 31.267439 -2.871232
2007-02-09 08:21:24 51°16.04 2°48.625 6.5813 3.274731 31.26675 -2.871232
2007-02-09 08:21:28 51°16.036 2°48.619 6.5792 3.278147 31.30021 -2.871232
2007-02-09 08:21:33 51°16.029 2°48.612 6.5781 3.281356 31.33416 -2.871232
2007-02-09 08:21:39 51°16.022 2°48.603 6.5752 3.276698 31.286664 -2.871232
2007-02-09 08:21:44 51°16.016 2°48.595 6.5744 3.276698 31.286664 -2.871232
2007-02-09 08:21:49 51°16.011 2°48.587 6.5714 3.278147 31.303781 -2.871232
2007-02-09 08:21:54 51°16.006 2°48.579 6.569 3.280321 31.328568 -2.871232
2007-02-09 08:21:58 51°16.002 2°48.572 6.57 3.283737 31.367402 -2.871232
2007-02-09 08:22:04 51°15.997 2°48.562 6.5696 3.277215 31.300173 -2.871232
2007-02-09 08:22:08 51°15.994 2°48.555 6.5691 3.275559 31.284432 -2.871232
2007-02-09 08:22:13 51°15.99 2°48.547 6.5687 3.275559 31.284432 -2.871232
2007-02-09 08:22:18 51°15.987 2°48.538 6.5683 3.265519 31.180878 -2.871232
2007-02-09 08:22:24 51°15.983 2°48.527 6.5702 3.277526 31.310604 -2.871232
2007-02-09 08:22:29 51°15.98 2°48.518 6.5698 3.281563 31.354233 -2.871232
2007-02-09 08:22:34 51°15.978 2°48.51 6.568 3.255789 31.083301 -2.871232
2007-02-09 08:22:38 51°15.976 2°48.502 6.566 3.277733 31.316369 -2.871232
2007-02-09 08:22:44 51°15.973 2°48.492 6.5644 3.277733 31.316369 -2.871232
2007-02-09 08:22:48 51°15.971 2°48.485 6.5637 3.266657 31.199152 -2.871232
2007-02-09 08:22:53 51°15.97 2°48.475 6.5633 3.269763 31.232902 -2.871232
2007-02-09 08:22:59 51°15.967 2°48.465 6.5633 3.279493 31.334998 -2.871232
2007-02-09 08:23:04 51°15.966 2°48.456 6.564 3.282391 31.365685 -2.871232
2007-02-09 08:23:08 51°15.964 2°48.449 6.5652 3.276491 31.304114 -2.871232
2007-02-09 08:23:14 51°15.962 2°48.439 6.5646 3.284047 31.385909 -2.871232
2007-02-09 08:23:18 51°15.96 2°48.432 6.5638 3.284047 31.385909 -2.871232
2007-02-09 08:23:24 51°15.958 2°48.422 6.563 3.277216 31.315358 -2.871232
2007-02-09 08:23:28 51°15.957 2°48.415 6.5638 3.271936 31.261258 -2.871232
2007-02-09 08:23:33 51°15.955 2°48.406 6.5642 3.272868 31.27112 -2.871232
2007-02-09 08:23:39 51°15.953 2°48.396 6.5624 3.278561 31.3305 -2.871232
2007-02-09 08:23:44 51°15.951 2°48.387 6.5619 3.278561 31.3305 -2.871232
2007-02-09 08:23:48 51°15.95 2°48.38 6.562 3.286532 31.414909 -2.871232
2007-02-09 08:23:54 51°15.948 2°48.37 6.5628 3.280942 31.355709 -2.871232
2007-02-09 08:23:58 51°15.946 2°48.363 6.5629 3.275042 31.294132 -2.871232
2007-02-09 08:24:04 51°15.944 2°48.353 6.5616 3.280321 31.350027 -2.871232
2007-02-09 08:24:08 51°15.943 2°48.346 6.5631 3.282288 31.36996 -2.871232
2007-02-09 08:24:13 51°15.941 2°48.337 6.5645 3.282288 31.36996 -2.871232
2007-02-09 08:24:19 51°15.939 2°48.327 6.5639 3.277733 31.32352 -2.871232
2007-02-09 08:24:24 51°15.936 2°48.318 6.5648 3.283323 31.382713 -2.871232
2007-02-09 08:24:29 51°15.935 2°48.31 6.5661 3.287567 31.427667 -2.871232
2007-02-09 08:24:34 51°15.933 2°48.302 6.568 3.279493 31.343048 -2.871232
2007-02-09 08:24:38 51°15.931 2°48.294 6.5688 3.287153 31.423281 -2.871232
2007-02-09 08:24:44 51°15.929 2°48.285 6.5689 3.282909 31.378328 -2.871232
2007-02-09 08:24:49 51°15.927 2°48.276 6.5697 3.282909 31.378328 -2.871232
2007-02-09 08:24:53 51°15.925 2°48.27 6.5711 3.283012 31.377633 -2.871232
2007-02-09 08:24:58 51°15.923 2°48.261 6.5694 3.281667 31.363382 -2.871232
2007-02-09 08:25:04 51°15.92 2°48.252 6.5729 3.284254 31.388997 -2.871232
2007-02-09 08:25:09 51°15.918 2°48.243 6.5757 3.284565 31.39139 -2.871232
2007-02-09 08:25:14 51°15.915 2°48.235 6.5735 3.284565 31.39139 -2.871232
2007-02-09 08:25:18 51°15.913 2°48.229 6.5746 3.28384 31.383716 -2.871232
2007-02-09 08:25:24 51°15.911 2°48.219 6.574 3.292743 31.477111 -2.871232
2007-02-09 08:25:29 51°15.908 2°48.211 6.5746 3.284254 31.38631 -2.871232
2007-02-09 08:25:34 51°15.906 2°48.203 6.5718 3.272661 31.262683 -2.871232
2007-02-09 08:25:37 51°15.905 2°48.199 6.5695 3.286946 31.412122 -2.871232
2007-02-09 08:25:44 51°15.901 2°48.188 6.5702 3.286946 31.412122 -2.871232
2007-02-09 08:25:49 51°15.899 2°48.18 6.5732 3.283116 31.370671 -2.871232
2007-02-09 08:25:54 51°15.896 2°48.173 6.5731 3.286221 31.402657 -2.871232
2007-02-09 08:25:59 51°15.894 2°48.166 6.5738 3.284358 31.382928 -2.871232
2007-02-09 08:26:04 51°15.891 2°48.158 6.5734 3.288188 31.423484 -2.871232
2007-02-09 08:26:09 51°15.888 2°48.151 6.5734 3.288809 31.431855 -2.871232
2007-02-09 08:26:13 51°15.886 2°48.145 6.573 3.288809 31.431855 -2.871232
2007-02-09 08:26:19 51°15.883 2°48.136 6.5692 3.285704 31.399864 -2.871232
2007-02-09 08:26:24 51°15.88 2°48.129 6.5683 3.286635 31.408834 -2.871232
2007-02-09 08:26:29 51°15.878 2°48.122 6.5661 3.284047 31.380535 -2.871232
2007-02-09 08:26:34 51°15.875 2°48.114 6.5658 3.284151 31.381631 -2.871232
2007-02-09 08:26:38 51°15.873 2°48.108 6.5662 3.284358 31.383823 -2.871232
2007-02-09 08:26:44 51°15.869 2°48.1 6.5664 3.281459 31.353137 -2.871232
2007-02-09 08:26:48 51°15.867 2°48.094 6.5677 3.281459 31.353137 -2.871232
2007-02-09 08:26:53 51°15.864 2°48.087 6.5699 3.285186 31.393488 -2.871232
2007-02-09 08:26:58 51°15.861 2°48.079 6.5732 3.284875 31.391991 -2.871232
2007-02-09 08:27:04 51°15.858 2°48.072 6.5744 3.279389 31.335691 -2.871232
2007-02-09 08:27:09 51°15.855 2°48.064 6.5768 3.27587 31.299325 -2.871232
2007-02-09 08:27:14 51°15.852 2°48.057 6.5787 3.27587 31.299325 -2.871232
2007-02-09 08:27:18 51°15.85 2°48.052 6.5795 3.280942 31.353025 -2.871232
2007-02-09 08:27:24 51°15.846 2°48.043 6.5794 3.272972 31.267754 -2.871232
2007-02-09 08:27:28 51°15.844 2°48.038 6.5789 3.27794 31.318561 -2.871232
2007-02-09 08:27:34 51°15.84 2°48.029 6.5795 3.28353 31.375951 -2.871232
2007-02-09 08:27:39 51°15.837 2°48.022 6.5795 3.272143 31.253638 -2.871232
2007-02-09 08:27:44 51°15.834 2°48.015 6.5808 3.272143 31.253638 -2.871232
2007-02-09 08:27:49 51°15.832 2°48.008 6.5791 3.282805 31.364699 -2.871232
2007-02-09 08:27:54 51°15.829 2°48.001 6.5802 3.286635 31.403457 -2.871232
2007-02-09 08:27:58 51°15.827 2°47.995 6.5806 3.285082 31.386123 -2.871232
2007-02-09 08:28:04 51°15.823 2°47.987 6.5813 3.285807 31.393794 -2.871232
2007-02-09 08:28:08 51°15.821 2°47.981 6.5793 3.283426 31.368589 -2.871232
2007-02-09 08:28:14 51°15.817 2°47.972 6.5771 3.289119 31.427969 -2.871232
2007-02-09 08:28:19 51°15.814 2°47.965 6.5761 3.289119 31.427969 -2.871232
2007-02-09 08:28:24 51°15.812 2°47.958 6.5765 3.263448 31.155425 -2.871232
2007-02-09 08:28:29 51°15.809 2°47.951 6.5775 3.289016 31.42508 -2.871232
2007-02-09 08:28:34 51°15.806 2°47.943 6.5794 3.284254 31.37467 -2.871232
2007-02-09 08:28:38 51°15.804 2°47.938 6.5793 3.280735 31.337418 -2.871232
2007-02-09 08:28:44 51°15.801 2°47.929 6.5788 3.280735 31.337418 -2.871232
2007-02-09 08:28:48 51°15.799 2°47.923 6.5783 3.28353 31.367895 -2.871232
2007-02-09 08:28:53 51°15.796 2°47.916 6.5789 3.288602 31.423386 -2.871232
2007-02-09 08:28:58 51°15.793 2°47.908 6.5785 3.277629 31.307233 -2.871232
2007-02-09 08:29:04 51°15.79 2°47.899 6.5785 3.28736 31.410233 -2.871232
2007-02-09 08:29:09 51°15.788 2°47.892 6.5779 3.285703 31.391802 -2.871232
2007-02-09 08:29:14 51°15.786 2°47.884 6.5786 3.285703 31.391802 -2.871232
2007-02-09 08:29:18 51°15.783 2°47.878 6.5775 3.281977 31.353249 -2.871232
2007-02-09 08:29:24 51°15.781 2°47.869 6.577 3.283219 31.365503 -2.871232
2007-02-09 08:29:29 51°15.778 2°47.861 6.5776 3.284047 31.375164 -2.871232
2007-02-09 08:29:34 51°15.775 2°47.854 6.5769 3.277733 31.307436 -2.871232
2007-02-09 08:29:37 51°15.774 2°47.849 6.5745 3.280942 31.341398 -2.871232
2007-02-09 08:29:44 51°15.77 2°47.839 6.5746 3.280942 31.341398 -2.871232
2007-02-09 08:29:49 51°15.767 2°47.832 6.573 3.285186 31.386323 -2.871232
2007-02-09 08:29:54 51°15.765 2°47.825 6.5728 3.287153 31.408041 -2.871232
2007-02-09 08:29:58 51°15.762 2°47.818 6.574 3.284979 31.385027 -2.871232
2007-02-09 08:30:04 51°15.759 2°47.81 6.5755 3.286842 31.404753 -2.871232
2007-02-09 08:30:09 51°15.757 2°47.802 6.5751 3.282288 31.35743 -2.871232
2007-02-09 08:30:14 51°15.754 2°47.795 6.5759 3.28177 31.351952 -2.871232
2007-02-09 08:30:18 51°15.753 2°47.789 6.5756 3.28177 31.351952 -2.871232
2007-02-09 08:30:24 51°15.75 2°47.78 6.5765 3.28384 31.375658 -2.871232
2007-02-09 08:30:29 51°15.748 2°47.773 6.5765 3.283944 31.377649 -2.871232
2007-02-09 08:30:34 51°15.745 2°47.765 6.5773 3.293881 31.481987 -2.871232
2007-02-09 08:30:37 51°15.743 2°47.761 6.5772 3.286842 31.407441 -2.871232
2007-02-09 08:30:44 51°15.74 2°47.75 6.5764 3.286842 31.407441 -2.871232
2007-02-09 08:30:49 51°15.738 2°47.743 6.5757 3.287567 31.414218 -2.871232
2007-02-09 08:30:53 51°15.735 2°47.737 6.5751 3.286014 31.397777 -2.871232
2007-02-09 08:30:59 51°15.733 2°47.728 6.574 3.288084 31.418802 -2.871232
2007-02-09 08:31:04 51°15.73 2°47.72 6.5724 3.28736 31.411129 -2.871232
2007-02-09 08:31:09 51°15.727 2°47.713 6.5732 3.28736 31.411129 -2.871232
2007-02-09 08:31:13 51°15.726 2°47.707 6.5735 3.28736 31.411129 -2.871232
2007-02-09 08:31:19 51°15.723 2°47.698 6.5743 3.28943 31.432154 -2.871232
2007-02-09 08:31:24 51°15.72 2°47.691 6.5763 3.287877 31.41661 -2.871232
2007-02-09 08:31:29 51°15.717 2°47.684 6.5776 3.292328 31.464643 -2.871232
2007-02-09 08:31:33 51°15.715 2°47.678 6.5779 3.290465 31.445807 -2.871232
2007-02-09 08:31:39 51°15.712 2°47.669 6.578 3.29502 31.494946 -2.871232
2007-02-09 08:31:44 51°15.709 2°47.661 6.5779 3.292225 31.465342 -2.871232
2007-02-09 08:31:49 51°15.707 2°47.654 6.5772 3.292225 31.465342 -2.871232
2007-02-09 08:31:54 51°15.704 2°47.646 6.5751 3.290051 31.441422 -2.871232
2007-02-09 08:31:58 51°15.702 2°47.64 6.575 3.29295 31.471221 -2.871232
2007-02-09 08:32:04 51°15.699 2°47.631 6.5747 3.294088 31.482383 -2.871232
2007-02-09 08:32:08 51°15.697 2°47.625 6.5744 3.29295 31.469425 -2.871232
2007-02-09 08:32:14 51°15.694 2°47.616 6.5742 3.293571 31.476003 -2.871232
2007-02-09 08:32:19 51°15.691 2°47.609 6.5717 3.293571 31.476003 -2.871232
2007-02-09 08:32:24 51°15.689 2°47.601 6.5706 3.285289 31.388314 -2.871232
2007-02-09 08:32:28 51°15.687 2°47.595 6.5716 3.290155 31.440724 -2.871232
2007-02-09 08:32:34 51°15.684 2°47.586 6.5711 3.293674 31.478896 -2.871232
2007-02-09 08:32:38 51°15.682 2°47.58 6.5717 3.29502 31.494048 -2.871232
2007-02-09 08:32:44 51°15.679 2°47.571 6.5723 3.29502 31.494048 -2.871232
2007-02-09 08:32:48 51°15.677 2°47.565 6.572 3.293674 31.479794 -2.871232
2007-02-09 08:32:54 51°15.674 2°47.556 6.5746 3.292018 31.463149 -2.871232
2007-02-09 08:32:59 51°15.671 2°47.549 6.5769 3.299057 31.539515 -2.871232
2007-02-09 08:33:04 51°15.668 2°47.542 6.5798 3.286635 31.407937 -2.871232
2007-02-09 08:33:09 51°15.666 2°47.535 6.5806 3.293881 31.484682 -2.871232
2007-02-09 08:33:14 51°15.663 2°47.527 6.5807 3.293881 31.484682 -2.871232
2007-02-09 08:33:18 51°15.661 2°47.522 6.5819 3.298436 31.532934 -2.871232
2007-02-09 08:33:24 51°15.658 2°47.513 6.5811 3.2915 31.458565 -2.871232
2007-02-09 08:33:28 51°15.656 2°47.507 6.5825 3.305682 31.607918 -2.871232
2007-02-09 08:33:33 51°15.653 2°47.5 6.5819 3.304026 31.587662 -2.871232
2007-02-09 08:33:39 51°15.649 2°47.492 6.5822 3.303301 31.579082 -2.871232
2007-02-09 08:33:44 51°15.647 2°47.485 6.5835 3.305372 31.600119 -2.871232
2007-02-09 08:33:49 51°15.644 2°47.478 6.5821 3.305372 31.600119 -2.871232
2007-02-09 08:33:54 51°15.641 2°47.47 6.5814 3.306717 31.612575 -2.871232
2007-02-09 08:33:58 51°15.639 2°47.465 6.5822 3.304336 31.586446 -2.871232
2007-02-09 08:34:04 51°15.635 2°47.456 6.5828 3.299264 31.532711 -2.871232
2007-02-09 08:34:08 51°15.633 2°47.45 6.5832 3.290051 31.435144 -2.871232
2007-02-09 08:34:13 51°15.63 2°47.443 6.5827 3.290051 31.435144 -2.871232
2007-02-09 08:34:19 51°15.627 2°47.435 6.5834 3.30444 31.587543 -2.871232
2007-02-09 08:34:24 51°15.624 2°47.427 6.5824 3.307028 31.614964 -2.871232
2007-02-09 08:34:29 51°15.622 2°47.42 6.5812 3.305889 31.601997 -2.871232
2007-02-09 08:34:34 51°15.619 2°47.413 6.5801 3.301852 31.559225 -2.871232
2007-02-09 08:34:38 51°15.617 2°47.407 6.5793 3.302991 31.571288 -2.871232
2007-02-09 08:34:44 51°15.613 2°47.399 6.5777 3.302991 31.571288 -2.871232
2007-02-09 08:34:49 51°15.61 2°47.392 6.5773 3.289533 31.427871 -2.871232